U22716 / G-EZWE 7700 Squawk Report (19th of May, 2018)

Aircraft A320 Reg No. G-EZWE Age 5 years old
Model A320 Jet engines 2 First flight 24-09-12
Registered 28-09-12 Rollout 08-12 Delivered 28-09-12
Construction No. 5289 Line No. N/A Series 214
ADSHEX 406756 Airline name easyJet Owner N/A
Airfield based Luton~Beds~G First tracked 2012-09-29 06:24:02
Time Lat Lon Altitude Heading Speed Vertical Rate
2018-05-19 21:41:32 GMT 45.720421 5.089125 0 354 74 0
2018-05-19 21:41:19 GMT 45.714344 5.089828 675 356 133 -640
2018-05-19 21:41:12 GMT 45.709873 5.090378 775 356 133 -640
2018-05-19 21:41:02 GMT 45.702988 5.091225 900 356 132 -704
2018-05-19 21:40:54 GMT 45.698891 5.091751 975 356 131 -640
2018-05-19 21:40:51 GMT 45.697212 5.091957 1,000 355 131 -704
2018-05-19 21:40:44 GMT 45.692688 5.092498 1,100 356 131 -640
2018-05-19 21:40:40 GMT 45.690765 5.092699 1,125 355 130 -704
2018-05-19 21:40:30 GMT 45.684597 5.093468 1,250 356 130 -704
2018-05-19 21:40:20 GMT 45.678131 5.094240 1,375 356 131 -704
2018-05-19 21:40:10 GMT 45.671329 5.095116 1,500 356 132 -704
2018-05-19 21:40:03 GMT 45.667786 5.095513 1,575 355 132 -704
2018-05-19 21:39:58 GMT 45.665314 5.095848 1,600 355 133 -704
2018-05-19 21:39:55 GMT 45.663345 5.096048 1,650 356 133 -704
2018-05-19 21:39:46 GMT 45.656891 5.096852 1,775 355 135 -768
2018-05-19 21:39:42 GMT 45.654385 5.097176 1,800 356 135 -704
2018-05-19 21:39:38 GMT 45.652336 5.097382 1,850 356 137 -704
2018-05-19 21:39:35 GMT 45.650753 5.097588 1,875 356 138 -704
2018-05-19 21:39:32 GMT 45.648834 5.097790 1,925 356 140 -704
2018-05-19 21:39:25 GMT 45.644348 5.098393 2,000 355 145 -832
2018-05-19 21:39:22 GMT 45.641922 5.098661 2,050 355 148 -896
2018-05-19 21:39:15 GMT 45.637344 5.099197 2,300 356 153 -832
2018-05-19 21:39:07 GMT 45.631302 5.099934 2,250 356 153 -768
2018-05-19 21:39:01 GMT 45.627686 5.100403 2,325 355 155 -960
2018-05-19 21:38:56 GMT 45.623798 5.100883 2,400 356 156 -1024
2018-05-19 21:38:50 GMT 45.619858 5.101341 2,500 356 156 -1024
2018-05-19 21:38:42 GMT 45.613697 5.102119 2,650 355 156 -704
2018-05-19 21:38:39 GMT 45.612122 5.102279 2,675 356 156 -768
2018-05-19 21:38:34 GMT 45.607601 5.102806 2,725 356 163 -640
2018-05-19 21:38:27 GMT 45.603226 5.103355 2,775 356 168 -576
2018-05-19 21:38:23 GMT 45.599670 5.103752 2,800 356 175 -640
2018-05-19 21:38:18 GMT 45.595642 5.104221 2,850 356 180 -384
2018-05-19 21:38:12 GMT 45.590698 5.104824 2,900 355 180 0
2018-05-19 21:38:08 GMT 45.587082 5.105293 2,900 356 180 0
2018-05-19 21:38:02 GMT 45.582733 5.105829 2,900 356 179 0
2018-05-19 21:37:57 GMT 45.578476 5.106298 2,900 356 179 -64
2018-05-19 21:37:52 GMT 45.573895 5.106857 2,900 356 178 -192
2018-05-19 21:37:47 GMT 45.569706 5.107338 2,925 356 176 -320
2018-05-19 21:37:42 GMT 45.565659 5.107839 2,950 356 176 -640
2018-05-19 21:37:36 GMT 45.560165 5.108509 3,050 356 176 -960
2018-05-19 21:37:31 GMT 45.557190 5.108844 3,100 356 175 -1344
2018-05-19 21:37:25 GMT 45.552017 5.109513 3,225 355 176 -512
2018-05-19 21:37:22 GMT 45.548721 5.109915 3,250 355 181 384
2018-05-19 21:37:15 GMT 45.542706 5.110786 3,200 355 191 -448
2018-05-19 21:37:11 GMT 45.540192 5.111121 3,225 355 193 -576
2018-05-19 21:37:01 GMT 45.530788 5.112327 3,325 355 200 -576
2018-05-19 21:36:53 GMT 45.523479 5.113466 3,375 354 204 -640
2018-05-19 21:36:50 GMT 45.521244 5.113801 3,400 354 205 -640
2018-05-19 21:36:43 GMT 45.513748 5.115182 3,475 351 210 -576
2018-05-19 21:36:40 GMT 45.511459 5.115705 3,500 350 212 -576
2018-05-19 21:36:30 GMT 45.501389 5.119171 3,600 341 218 -576
2018-05-19 21:36:19 GMT 45.491730 5.124854 3,700 336 226 -512
2018-05-19 21:36:10 GMT 45.481861 5.131151 3,800 336 230 -576
2018-05-19 21:35:59 GMT 45.471817 5.137547 3,900 336 236 -640
2018-05-19 21:35:49 GMT 45.461243 5.144283 4,000 336 242 -640
2018-05-19 21:35:39 GMT 45.450672 5.150980 4,075 337 247 -128
2018-05-19 21:35:28 GMT 45.439316 5.157819 4,100 339 252 64
2018-05-19 21:35:17 GMT 45.427723 5.163775 4,075 344 257 64
2018-05-19 21:35:14 GMT 45.422882 5.165601 4,075 351 256 0
2018-05-19 21:35:07 GMT 45.415573 5.166589 4,075 5 254 0
2018-05-19 21:34:56 GMT 45.403427 5.162986 4,075 25 250 -128
2018-05-19 21:34:46 GMT 45.393040 5.153124 4,075 44 249 64
2018-05-19 21:34:35 GMT 45.385826 5.139458 4,075 64 250 128
2018-05-19 21:34:24 GMT 45.381634 5.122576 4,075 82 253 -64
2018-05-19 21:34:16 GMT 45.381264 5.108710 4,075 97 256 64
2018-05-19 21:34:13 GMT 45.381634 5.104757 4,075 102 258 -64
2018-05-19 21:34:03 GMT 45.386124 5.087782 4,075 124 267 -192
2018-05-19 21:33:56 GMT 45.391571 5.077580 4,100 137 271 -128
2018-05-19 21:33:52 GMT 45.394901 5.073205 4,100 142 273 64
2018-05-19 21:33:45 GMT 45.401745 5.066841 4,075 154 283 -128
2018-05-19 21:33:41 GMT 45.406586 5.063759 4,100 162 291 -384
2018-05-19 21:33:35 GMT 45.415283 5.060512 4,125 174 303 -896
2018-05-19 21:33:31 GMT 45.420914 5.059727 4,175 181 310 -1152
2018-05-19 21:33:28 GMT 45.426132 5.059793 4,250 189 315 -1536
2018-05-19 21:33:25 GMT 45.429863 5.060343 4,300 189 315 -1536
2018-05-19 21:33:17 GMT 45.441643 5.064697 4,525 202 324 -2240
2018-05-19 21:33:13 GMT 45.446411 5.067705 4,675 210 328 -2688
2018-05-19 21:33:09 GMT 45.451218 5.071564 4,850 215 330 -2944
2018-05-19 21:33:06 GMT 45.454193 5.074441 4,950 218 330 -3072
2018-05-19 21:33:02 GMT 45.459000 5.080000 5,175 226 332 -3456
2018-05-19 21:32:59 GMT 45.463615 5.086670 5,400 232 332 -3648
2018-05-19 21:32:56 GMT 45.465847 5.090622 5,550 235 333 -3648
2018-05-19 21:32:52 GMT 45.468887 5.096806 5,750 239 334 -3712
2018-05-19 21:32:45 GMT 45.474415 5.112662 6,175 250 335 -3712
2018-05-19 21:32:42 GMT 45.475800 5.118583 6,400 256 334 -3840
2018-05-19 21:32:37 GMT 45.477673 5.131017 6,750 264 336 -3584
2018-05-19 21:32:33 GMT 45.478180 5.139444 7,000 269 337 -3712
2018-05-19 21:32:25 GMT 45.477539 5.155923 7,450 279 337 -3776
2018-05-19 21:32:22 GMT 45.476715 5.162070 7,625 285 337 -3776
2018-05-19 21:32:16 GMT 45.473877 5.175149 8,125 294 338 -3776
2018-05-19 21:32:12 GMT 45.471203 5.183403 8,275 299 339 -3776
2018-05-19 21:32:04 GMT 45.464859 5.197318 8,725 309 339 -3904
2018-05-19 21:32:01 GMT 45.462311 5.201758 8,900 311 340 -3776
2018-05-19 21:31:54 GMT 45.454697 5.214517 9,350 311 341 -3456
2018-05-19 21:31:51 GMT 45.451229 5.220315 9,550 311 342 -3584
2018-05-19 21:31:43 GMT 45.443920 5.232507 10,025 311 351 -3264
2018-05-19 21:31:39 GMT 45.438011 5.242354 10,275 311 348 -3200
2018-05-19 21:31:33 GMT 45.433029 5.250527 10,550 311 349 -3136
2018-05-19 21:31:27 GMT 45.426956 5.260555 10,825 311 352 -3392
2018-05-19 21:31:23 GMT 45.421947 5.268815 11,100 311 353 -3776
2018-05-19 21:31:18 GMT 45.415283 5.279650 11,475 312 355 -3712
2018-05-19 21:31:14 GMT 45.412308 5.284489 11,650 312 356 -3328
2018-05-19 21:31:10 GMT 45.406540 5.293735 11,900 312 358 -2944
2018-05-19 21:31:02 GMT 45.399170 5.305546 12,275 312 362 -3264
2018-05-19 21:30:59 GMT 45.395599 5.311236 12,450 312 363 -3584
2018-05-19 21:30:55 GMT 45.390854 5.318790 13,000 312 364 -4032
2018-05-19 21:30:51 GMT 45.386757 5.325355 12,900 312 364 -3840
2018-05-19 21:30:47 GMT 45.382240 5.332589 13,175 312 364 -4224
2018-05-19 21:30:44 GMT 45.379120 5.337614 13,500 312 364 -4416
2018-05-19 21:30:41 GMT 45.374817 5.344522 13,650 312 364 -4416
2018-05-19 21:30:38 GMT 45.373169 5.347137 13,750 312 364 -4288
2018-05-19 21:30:34 GMT 45.368225 5.355181 14,100 311 364 -3776
2018-05-19 21:30:31 GMT 45.363712 5.362534 14,325 312 365 -3776
2018-05-19 21:30:27 GMT 45.360214 5.368260 14,525 312 365 -3712
2018-05-19 21:30:24 GMT 45.356869 5.373654 14,950 312 366 -3456
2018-05-19 21:30:21 GMT 45.353146 5.379750 15,350 312 367 -3072
2018-05-19 21:30:18 GMT 45.349228 5.386047 15,075 312 370 -2176
2018-05-19 21:30:14 GMT 45.344742 5.393306 15,175 312 374 -1600
2018-05-19 21:30:11 GMT 45.342224 5.397426 15,350 312 381 -1728
2018-05-19 21:30:08 GMT 45.338017 5.404202 15,350 312 383 -1792
2018-05-19 21:30:04 GMT 45.333267 5.411838 15,475 312 388 -2624
2018-05-19 21:29:58 GMT 45.326611 5.422423 15,700 312 393 -2752
2018-05-19 21:29:51 GMT 45.318279 5.435687 16,050 312 398 -3392
2018-05-19 21:29:48 GMT 45.312561 5.444837 16,300 312 401 -3904
2018-05-19 21:29:44 GMT 45.309128 5.450265 16,575 312 403 -4288
2018-05-19 21:29:40 GMT 45.305382 5.456186 16,700 312 404 -4288
2018-05-19 21:29:37 GMT 45.301163 5.462886 16,925 312 405 -4416
2018-05-19 21:29:33 GMT 45.295094 5.472464 17,200 312 407 -4480
2018-05-19 21:29:30 GMT 45.292007 5.477339 17,450 312 408 -4480
2018-05-19 21:29:26 GMT 45.286194 5.486494 17,725 312 410 -4416
2018-05-19 21:29:22 GMT 45.281479 5.493949 18,075 312 412 -4608
2018-05-19 21:29:19 GMT 45.278801 5.498255 18,225 312 412 -4800
2018-05-19 21:29:15 GMT 45.273636 5.506361 18,675 312 413 -5120
2018-05-19 21:29:12 GMT 45.269257 5.513306 18,825 312 414 -5184
2018-05-19 21:29:09 GMT 45.266045 5.518486 19,050 312 414 -5248
2018-05-19 21:29:06 GMT 45.262299 5.524554 19,300 312 414 -5248
2018-05-19 21:29:02 GMT 45.255245 5.535837 19,775 312 415 -4928
2018-05-19 21:28:58 GMT 45.252548 5.540183 19,950 312 415 -4736
2018-05-19 21:28:55 GMT 45.247658 5.548096 20,225 312 418 -4288
2018-05-19 21:28:51 GMT 45.241379 5.558167 20,575 312 421 -4032
2018-05-19 21:28:47 GMT 45.236996 5.565245 20,875 312 424 -4096
2018-05-19 21:28:44 GMT 45.234512 5.569218 20,925 312 425 -4160
2018-05-19 21:28:41 GMT 45.230572 5.575428 21,275 313 427 -4864
2018-05-19 21:28:38 GMT 45.224987 5.584069 21,375 313 428 -5312
2018-05-19 21:28:35 GMT 45.221420 5.589491 21,850 315 427 -5952
2018-05-19 21:28:32 GMT 45.217392 5.595507 22,000 316 426 -6208
2018-05-19 21:28:29 GMT 45.212860 5.601719 22,425 318 425 -6272
2018-05-19 21:28:25 GMT 45.208191 5.607736 22,625 320 425 -6080
2018-05-19 21:28:22 GMT 45.202972 5.613817 23,000 324 424 -6144
2018-05-19 21:28:19 GMT 45.198990 5.618068 23,600 328 422 -6144
2018-05-19 21:28:16 GMT 45.193176 5.623692 23,600 329 423 -6208
2018-05-19 21:28:12 GMT 45.185257 5.630362 24,100 332 421 -6144
2018-05-19 21:28:09 GMT 45.181961 5.632847 24,475 336 420 -5888
2018-05-19 21:28:06 GMT 45.176331 5.636706 24,625 337 419 -5824
2018-05-19 21:28:03 GMT 45.172195 5.639202 24,825 340 419 -5632
2018-05-19 21:28:00 GMT 45.166763 5.642199 25,100 341 418 -5568
2018-05-19 21:27:57 GMT 45.159721 5.645499 25,575 346 417 -5440
2018-05-19 21:27:54 GMT 45.154129 5.647627 25,825 350 416 -5376
2018-05-19 21:27:51 GMT 45.148548 5.649451 26,075 351 415 -5440
2018-05-19 21:27:48 GMT 45.144470 5.650504 26,275 353 414 -5376
2018-05-19 21:27:45 GMT 45.138027 5.651796 26,650 356 414 -4672
2018-05-19 21:27:42 GMT 45.131516 5.652531 27,625 7 423 -2496
2018-05-19 21:27:39 GMT 45.124557 5.652924 26,975 0 417 -3072
2018-05-19 21:27:35 GMT 45.119595 5.652868 27,125 2 418 -2752
2018-05-19 21:27:32 GMT 45.112198 5.652335 27,300 5 420 -2624
2018-05-19 21:27:28 GMT 45.104324 5.651158 27,525 9 425 -2176
2018-05-19 21:27:24 GMT 45.097294 5.649585 27,600 11 429 -1600
2018-05-19 21:27:20 GMT 45.089428 5.647241 27,725 15 436 -1600
2018-05-19 21:27:17 GMT 45.083588 5.645076 27,775 16 436 -1728
2018-05-19 21:27:14 GMT 45.078232 5.642787 27,850 18 437 -2112
2018-05-19 21:27:10 GMT 45.066971 5.636967 28,050 22 438 -3072
2018-05-19 21:27:07 GMT 45.063675 5.635005 28,175 25 437 -3584
2018-05-19 21:27:02 GMT 45.055443 5.629488 28,550 29 434 -4416
2018-05-19 21:26:59 GMT 45.050182 5.625469 28,650 30 433 -4736
2018-05-19 21:26:56 GMT 45.045437 5.621517 28,875 33 429 -5248
2018-05-19 21:26:53 GMT 45.038818 5.615322 29,150 34 427 -5504
2018-05-19 21:26:49 GMT 45.033333 5.609592 29,550 38 421 -4928
2018-05-19 21:26:45 GMT 45.027187 5.602625 29,875 41 419 -4160
2018-05-19 21:26:42 GMT 45.021698 5.595572 30,575 51 415 -3200
2018-05-19 21:26:38 GMT 45.017807 5.590210 30,575 50 416 -3200
2018-05-19 21:26:34 GMT 45.011452 5.580318 30,575 51 415 -3200
2018-05-19 21:26:31 GMT 45.008892 5.575896 30,700 56 414 -3072
2018-05-19 21:26:28 GMT 45.005447 5.569480 30,825 54 414 -3136
2018-05-19 21:26:23 GMT 44.999954 5.558036 31,100 60 413 -2624
2018-05-19 21:26:19 GMT 44.995483 5.547024 31,325 64 414 -2304
2018-05-19 21:26:15 GMT 44.991119 5.534297 31,475 66 414 -2176
2018-05-19 21:26:12 GMT 44.989620 5.529339 31,575 68 414 -1920
2018-05-19 21:26:09 GMT 44.987991 5.523376 31,750 72 415 -1472
2018-05-19 21:26:06 GMT 44.986359 5.516837 31,750 72 415 -1472
2018-05-19 21:26:03 GMT 44.984451 5.508036 31,825 74 416 -1088
2018-05-19 21:26:00 GMT 44.982605 5.498003 31,900 78 416 -704
2018-05-19 21:25:57 GMT 44.981827 5.492902 31,925 79 416 -576
2018-05-19 21:25:53 GMT 44.980133 5.478646 31,975 83 417 -320
2018-05-19 21:25:50 GMT 44.979675 5.473415 31,975 84 418 -256
2018-05-19 21:25:47 GMT 44.979172 5.464783 32,000 87 418 -64
2018-05-19 21:25:44 GMT 44.978897 5.458309 32,000 87 418 0
2018-05-19 21:25:41 GMT 44.978680 5.450157 32,000 87 418 0
2018-05-19 21:25:38 GMT 44.978352 5.439170 32,000 87 418 0
2018-05-19 21:25:35 GMT 44.978260 5.435017 32,000 87 418 0
2018-05-19 21:25:32 GMT 44.977936 5.424031 32,000 87 418 0
2018-05-19 21:25:29 GMT 44.977661 5.413579 32,000 87 418 -64
2018-05-19 21:25:26 GMT 44.977524 5.408347 32,025 87 418 0
2018-05-19 21:25:23 GMT 44.977329 5.401991 32,025 87 418 0
2018-05-19 21:25:20 GMT 44.977066 5.392652 32,025 87 418 0
2018-05-19 21:25:17 GMT 44.976818 5.383368 32,025 87 418 0
2018-05-19 21:25:14 GMT 44.976517 5.374146 32,025 87 418 0
2018-05-19 21:25:10 GMT 44.976242 5.363682 32,025 87 418 0
2018-05-19 21:25:06 GMT 44.975979 5.355567 32,025 87 418 0
2018-05-19 21:25:03 GMT 44.975700 5.345653 32,000 87 418 0
2018-05-19 21:24:59 GMT 44.975372 5.334666 32,000 87 418 0
2018-05-19 21:24:56 GMT 44.975189 5.327715 32,000 87 418 0
2018-05-19 21:24:52 GMT 44.974861 5.317249 32,000 87 418 0
2018-05-19 21:24:49 GMT 44.974583 5.307401 32,000 87 418 0
2018-05-19 21:24:46 GMT 44.974350 5.299831 32,000 87 418 0
2018-05-19 21:24:42 GMT 44.974026 5.288845 32,025 87 417 0
2018-05-19 21:24:38 GMT 44.973652 5.276251 32,000 87 417 0
2018-05-19 21:24:35 GMT 44.973495 5.270822 32,000 87 417 0
2018-05-19 21:24:32 GMT 44.973175 5.260424 32,000 87 417 0
2018-05-19 21:24:29 GMT 44.972900 5.250615 32,000 87 417 0
2018-05-19 21:24:26 GMT 44.972675 5.243560 32,000 87 417 0
2018-05-19 21:24:21 GMT 44.972260 5.229754 32,000 87 417 0
2018-05-19 21:24:18 GMT 44.972069 5.222793 32,000 87 417 -64
2018-05-19 21:24:15 GMT 44.971836 5.216429 32,000 87 417 -64
2018-05-19 21:24:10 GMT 44.971371 5.200754 32,000 87 417 0
2018-05-19 21:24:07 GMT 44.971046 5.189365 32,025 87 417 0
2018-05-19 21:24:04 GMT 44.970886 5.185155 32,025 87 417 0
2018-05-19 21:24:00 GMT 44.970612 5.176457 32,025 87 417 64
2018-05-19 21:23:57 GMT 44.970291 5.165471 32,000 87 417 0
2018-05-19 21:23:54 GMT 44.970020 5.157344 32,000 87 417 0
2018-05-19 21:23:49 GMT 44.969650 5.145198 32,000 87 417 0
2018-05-19 21:23:46 GMT 44.969414 5.137046 32,000 87 417 0
2018-05-19 21:23:43 GMT 44.969181 5.129610 32,000 87 416 0
2018-05-19 21:23:39 GMT 44.968826 5.117994 32,000 87 416 0
2018-05-19 21:23:36 GMT 44.968552 5.109297 32,000 87 416 0
2018-05-19 21:23:33 GMT 44.968300 5.101274 32,000 87 416 0
2018-05-19 21:23:30 GMT 44.968018 5.092632 32,000 87 416 0
2018-05-19 21:23:27 GMT 44.967785 5.085062 32,000 87 416 0
2018-05-19 21:23:24 GMT 44.967545 5.077057 32,000 87 415 0
2018-05-19 21:23:21 GMT 44.967274 5.068918 32,000 87 415 0
2018-05-19 21:23:18 GMT 44.967041 5.060839 32,000 87 415 0
2018-05-19 21:23:14 GMT 44.966675 5.049918 32,000 87 415 0
2018-05-19 21:23:11 GMT 44.966480 5.042993 32,000 87 415 0
2018-05-19 21:23:08 GMT 44.966202 5.034351 32,000 87 415 0
2018-05-19 21:23:04 GMT 44.965759 5.020490 32,000 87 415 0
2018-05-19 21:22:58 GMT 44.965302 5.006692 32,000 87 415 0
2018-05-19 21:22:55 GMT 44.965027 4.997995 32,000 87 415 0
2018-05-19 21:22:52 GMT 44.964798 4.992305 32,000 87 416 0
2018-05-19 21:22:49 GMT 44.964523 4.983608 32,000 87 416 0
2018-05-19 21:22:45 GMT 44.964157 4.972033 32,000 87 415 0
2018-05-19 21:22:42 GMT 44.963875 4.962873 32,000 87 415 0
2018-05-19 21:22:38 GMT 44.963425 4.950060 32,000 87 416 0
2018-05-19 21:22:35 GMT 44.963131 4.940900 32,000 87 416 0
2018-05-19 21:22:31 GMT 44.962738 4.929003 32,000 87 416 0
2018-05-19 21:22:27 GMT 44.962555 4.923052 32,000 87 416 0
2018-05-19 21:22:22 GMT 44.962143 4.910235 32,000 87 416 0
2018-05-19 21:22:18 GMT 44.961781 4.899835 32,000 87 416 0
2018-05-19 21:22:15 GMT 44.961456 4.890122 32,000 87 416 0
2018-05-19 21:22:12 GMT 44.961182 4.881984 32,000 87 416 64
2018-05-19 21:22:08 GMT 44.960861 4.873287 32,000 87 417 64
2018-05-19 21:22:04 GMT 44.960339 4.857699 32,000 87 417 64
2018-05-19 21:22:01 GMT 44.960220 4.853668 32,000 87 417 64
2018-05-19 21:21:57 GMT 44.959732 4.839143 31,975 87 417 64
2018-05-19 21:21:54 GMT 44.959534 4.833396 31,975 87 417 0
2018-05-19 21:21:51 GMT 44.959267 4.826415 31,975 87 417 0
2018-05-19 21:21:48 GMT 44.958801 4.813084 31,975 87 418 0
2018-05-19 21:21:44 GMT 44.958614 4.806787 31,975 87 418 -64
2018-05-19 21:21:41 GMT 44.958195 4.795666 31,975 87 418 -64
2018-05-19 21:21:35 GMT 44.957825 4.784010 32,000 87 418 -256
2018-05-19 21:21:32 GMT 44.957474 4.774802 32,025 87 416 -640
2018-05-19 21:21:29 GMT 44.957199 4.766693 32,000 87 418 -320
2018-05-19 21:21:24 GMT 44.956650 4.750410 32,050 87 417 -384
2018-05-19 21:21:20 GMT 44.956284 4.740012 32,075 87 416 -576
2018-05-19 21:21:17 GMT 44.955963 4.731021 32,075 87 416 -704
2018-05-19 21:21:13 GMT 44.955681 4.722111 32,125 87 417 -1088
2018-05-19 21:21:09 GMT 44.955311 4.711192 32,200 87 418 -1280
2018-05-19 21:21:06 GMT 44.955078 4.704761 32,225 87 418 -1408
2018-05-19 21:21:03 GMT 44.954681 4.693124 32,325 87 420 -1856
2018-05-19 21:21:00 GMT 44.954544 4.687827 32,450 87 420 -1984
2018-05-19 21:20:57 GMT 44.954239 4.678568 32,500 87 421 -1984
2018-05-19 21:20:53 GMT 44.953903 4.668012 32,625 87 421 -2048
2018-05-19 21:20:50 GMT 44.953587 4.656327 32,775 87 422 -2048
2018-05-19 21:20:47 GMT 44.953495 4.653313 32,875 87 423 -1984
2018-05-19 21:20:44 GMT 44.953171 4.642901 32,950 87 423 -1920
2018-05-19 21:20:41 GMT 44.952988 4.635184 33,050 87 424 -1856
2018-05-19 21:20:38 GMT 44.952667 4.624263 33,125 87 425 -1792
2018-05-19 21:20:34 GMT 44.952469 4.615732 33,300 86 426 -1920
2018-05-19 21:20:31 GMT 44.952118 4.605103 33,375 86 426 -1984
2018-05-19 21:20:28 GMT 44.951797 4.598628 33,500 81 428 -1984
2018-05-19 21:20:25 GMT 44.951248 4.590912 33,550 82 428 -1984
2018-05-19 21:20:22 GMT 44.950237 4.581500 33,700 77 430 -2048
2018-05-19 21:20:19 GMT 44.949142 4.573255 33,750 76 430 -2112
2018-05-19 21:20:15 GMT 44.947723 4.564558 33,875 74 431 -2240
2018-05-19 21:20:12 GMT 44.945812 4.555374 34,075 70 431 -2368
2018-05-19 21:20:09 GMT 44.943924 4.547359 34,125 70 431 -2432
2018-05-19 21:20:06 GMT 44.941544 4.538007 34,300 69 430 -2944
2018-05-19 21:20:03 GMT 44.939716 4.531056 34,475 69 430 -3200
2018-05-19 21:19:59 GMT 44.936920 4.520405 34,600 69 430 -3136
2018-05-19 21:19:55 GMT 44.934540 4.511523 35,275 69 427 -2688
2018-05-19 21:19:52 GMT 44.932453 4.503658 34,925 69 428 -2944
2018-05-19 21:19:49 GMT 44.930420 4.495893 35,125 69 427 -2880
2018-05-19 21:19:46 GMT 44.928223 4.487588 35,300 69 427 -2624
2018-05-19 21:19:42 GMT 44.925610 4.477532 35,850 69 427 -1856
2018-05-19 21:19:39 GMT 44.922817 4.466880 35,550 69 427 -1984
2018-05-19 21:19:34 GMT 44.919525 4.454302 35,700 69 427 -1600
2018-05-19 21:19:31 GMT 44.918015 4.448547 35,825 69 428 -1280
2018-05-19 21:19:28 GMT 44.915695 4.439682 35,850 69 428 -960
2018-05-19 21:19:24 GMT 44.913319 4.430639 35,925 69 429 -448
2018-05-19 21:19:21 GMT 44.910851 4.421260 35,975 69 429 -192
2018-05-19 21:19:18 GMT 44.908813 4.413365 35,975 69 429 -128
2018-05-19 21:19:14 GMT 44.906342 4.403948 36,000 69 429 -64
2018-05-19 21:19:10 GMT 44.903275 4.392177 36,000 69 429 0
2018-05-19 21:19:07 GMT 44.901497 4.385488 36,000 69 429 0
2018-05-19 21:19:04 GMT 44.899475 4.377594 36,000 69 429 0
2018-05-19 21:19:01 GMT 44.897400 4.369745 36,000 69 429 0
2018-05-19 21:18:58 GMT 44.894325 4.358022 36,000 69 429 0
2018-05-19 21:18:53 GMT 44.891396 4.347035 36,000 69 430 0
2018-05-19 21:18:50 GMT 44.890045 4.341888 36,000 69 430 0
2018-05-19 21:18:47 GMT 44.886520 4.328548 36,000 69 429 0
2018-05-19 21:18:42 GMT 44.883133 4.315600 36,000 69 429 0
2018-05-19 21:18:39 GMT 44.882355 4.312788 36,000 69 429 0
2018-05-19 21:18:36 GMT 44.880341 4.305006 36,000 69 429 0
2018-05-19 21:18:33 GMT 44.877960 4.295981 36,000 69 430 0
2018-05-19 21:18:30 GMT 44.875214 4.285649 36,000 69 430 0
2018-05-19 21:18:26 GMT 44.873245 4.278194 36,000 69 430 0
2018-05-19 21:18:20 GMT 44.869080 4.262499 36,000 69 429 0
2018-05-19 21:18:16 GMT 44.864410 4.244843 36,000 69 429 0
2018-05-19 21:18:12 GMT 44.863323 4.240790 36,000 69 429 0
2018-05-19 21:18:09 GMT 44.861088 4.232416 36,000 69 429 0
2018-05-19 21:18:05 GMT 44.857876 4.220358 36,025 69 430 0
2018-05-19 21:18:02 GMT 44.856384 4.214597 36,025 69 430 0
2018-05-19 21:17:59 GMT 44.853127 4.202471 36,025 69 430 0
2018-05-19 21:17:55 GMT 44.851318 4.195600 36,025 69 430 0
2018-05-19 21:17:49 GMT 44.846924 4.179055 36,025 69 430 0
2018-05-19 21:17:44 GMT 44.844360 4.169442 36,025 69 430 0
2018-05-19 21:17:38 GMT 44.839767 4.152095 36,025 69 429 0
2018-05-19 21:17:33 GMT 44.835800 4.137268 36,000 69 429 0
2018-05-19 21:17:29 GMT 44.833389 4.128180 36,000 69 430 64
2018-05-19 21:17:23 GMT 44.828796 4.110914 36,000 69 430 0
2018-05-19 21:17:18 GMT 44.826126 4.100848 36,000 69 430 0
2018-05-19 21:17:13 GMT 44.822571 4.087503 36,000 69 429 0
2018-05-19 21:17:08 GMT 44.818726 4.072985 36,000 69 429 0
2018-05-19 21:17:03 GMT 44.815475 4.060756 36,000 69 429 0
2018-05-19 21:16:57 GMT 44.811447 4.045715 36,000 69 429 0
2018-05-19 21:16:52 GMT 44.808197 4.033356 36,000 69 429 0
2018-05-19 21:16:47 GMT 44.804626 4.020015 36,000 69 429 0
2018-05-19 21:16:43 GMT 44.801083 4.006660 36,000 69 429 0
2018-05-19 21:16:39 GMT 44.797440 3.993007 36,000 69 429 0
2018-05-19 21:16:35 GMT 44.795868 3.987166 36,000 69 429 0
2018-05-19 21:16:32 GMT 44.793686 3.978947 36,000 69 429 0
2018-05-19 21:16:28 GMT 44.790115 3.965607 36,000 69 428 0
2018-05-19 21:16:24 GMT 44.788788 3.960571 36,000 69 428 0
2018-05-19 21:16:20 GMT 44.785675 3.948931 36,000 69 428 0
2018-05-19 21:16:17 GMT 44.783253 3.939938 36,000 69 428 0
2018-05-19 21:16:13 GMT 44.780548 3.929967 36,000 69 428 0
2018-05-19 21:16:10 GMT 44.778786 3.923325 36,000 69 428 0
2018-05-19 21:16:06 GMT 44.775375 3.910610 36,000 69 428 0
2018-05-19 21:15:59 GMT 44.770889 3.893999 36,000 69 428 0
2018-05-19 21:15:55 GMT 44.767891 3.882863 36,000 69 428 0
2018-05-19 21:15:50 GMT 44.763931 3.868103 36,000 69 428 0
2018-05-19 21:15:47 GMT 44.762192 3.861760 36,000 69 427 64
2018-05-19 21:15:44 GMT 44.759838 3.852919 36,000 69 427 64
2018-05-19 21:15:38 GMT 44.755833 3.837980 36,000 69 427 0
2018-05-19 21:15:34 GMT 44.753414 3.829070 36,000 69 428 -64
2018-05-19 21:15:29 GMT 44.749687 3.815203 36,025 69 427 -64
2018-05-19 21:15:23 GMT 44.745392 3.799242 36,000 69 427 -64
2018-05-19 21:15:17 GMT 44.741547 3.784855 36,025 69 427 64
2018-05-19 21:15:14 GMT 44.739304 3.776550 36,000 69 427 64
2018-05-19 21:15:08 GMT 44.734863 3.759940 36,000 69 427 64
2018-05-19 21:15:05 GMT 44.733070 3.753305 36,000 69 427 64
2018-05-19 21:15:02 GMT 44.730556 3.744127 36,000 69 427 64
2018-05-19 21:14:59 GMT 44.728134 3.735090 36,000 69 427 0
2018-05-19 21:14:53 GMT 44.724548 3.721820 36,000 69 427 0
2018-05-19 21:14:48 GMT 44.721291 3.709694 35,975 69 427 0
2018-05-19 21:14:41 GMT 44.716541 3.691942 35,975 69 427 0
2018-05-19 21:14:37 GMT 44.713120 3.679439 35,975 69 427 0
2018-05-19 21:14:33 GMT 44.711002 3.671443 35,975 69 426 0
2018-05-19 21:14:30 GMT 44.708313 3.661652 35,975 69 426 0
2018-05-19 21:14:26 GMT 44.706207 3.653892 36,000 69 426 0
2018-05-19 21:14:23 GMT 44.704102 3.646088 36,000 69 426 -64
2018-05-19 21:14:20 GMT 44.701859 3.637848 36,000 69 426 -64
2018-05-19 21:14:17 GMT 44.699505 3.629039 36,000 69 426 -64
2018-05-19 21:14:13 GMT 44.696945 3.619660 36,000 69 426 0
2018-05-19 21:14:10 GMT 44.694988 3.612492 36,000 69 426 -64
2018-05-19 21:14:06 GMT 44.691101 3.598153 36,000 69 426 0
2018-05-19 21:14:00 GMT 44.688126 3.587167 36,000 69 426 64
2018-05-19 21:13:56 GMT 44.684647 3.574480 36,000 69 426 64
2018-05-19 21:13:49 GMT 44.679256 3.554613 36,000 69 426 64
2018-05-19 21:13:45 GMT 44.677139 3.546884 35,975 69 426 0
2018-05-19 21:13:42 GMT 44.674896 3.538644 35,975 69 427 64
2018-05-19 21:13:39 GMT 44.673111 3.532039 36,000 69 427 0
2018-05-19 21:13:36 GMT 44.670689 3.523195 36,000 69 427 0
2018-05-19 21:13:31 GMT 44.667526 3.511636 36,000 69 427 0
2018-05-19 21:13:28 GMT 44.665283 3.503396 36,000 69 427 0
2018-05-19 21:13:25 GMT 44.663040 3.495091 36,000 69 427 0
2018-05-19 21:13:21 GMT 44.660202 3.484693 36,000 69 427 64
2018-05-19 21:13:17 GMT 44.656586 3.471484 35,975 69 427 64
2018-05-19 21:13:14 GMT 44.655350 3.467037 35,975 69 427 64
2018-05-19 21:13:09 GMT 44.651733 3.453827 35,975 69 427 0
2018-05-19 21:13:06 GMT 44.649044 3.443946 35,975 69 427 0
2018-05-19 21:13:03 GMT 44.647926 3.439994 35,975 69 427 0
2018-05-19 21:12:58 GMT 44.643723 3.424595 35,975 69 427 -64
2018-05-19 21:12:53 GMT 44.640850 3.414202 35,975 69 427 -64
2018-05-19 21:12:47 GMT 44.636009 3.396517 36,000 69 427 0
2018-05-19 21:12:41 GMT 44.632095 3.382285 36,000 69 427 0
2018-05-19 21:12:38 GMT 44.629818 3.373942 36,000 69 427 -64
2018-05-19 21:12:35 GMT 44.626698 3.362486 36,000 69 427 -64
2018-05-19 21:12:32 GMT 44.625595 3.358547 36,000 69 427 -64
2018-05-19 21:12:26 GMT 44.621704 3.344291 36,000 69 427 -64
2018-05-19 21:12:22 GMT 44.618225 3.331604 36,025 68 426 -64
2018-05-19 21:12:15 GMT 44.613831 3.315648 36,025 68 426 -64
2018-05-19 21:12:12 GMT 44.610672 3.304073 36,025 68 426 -64
2018-05-19 21:12:04 GMT 44.605499 3.285435 36,025 68 426 -64
2018-05-19 21:12:01 GMT 44.603210 3.277196 36,025 68 426 -64
2018-05-19 21:11:54 GMT 44.598999 3.261828 36,025 68 426 0
2018-05-19 21:11:51 GMT 44.595337 3.248749 36,025 68 427 0
2018-05-19 21:11:46 GMT 44.592728 3.239267 36,025 68 428 0
2018-05-19 21:11:42 GMT 44.589970 3.229378 36,025 68 428 0
2018-05-19 21:11:39 GMT 44.588150 3.222787 36,025 68 428 64
2018-05-19 21:11:34 GMT 44.584167 3.208466 36,025 68 428 64
2018-05-19 21:11:30 GMT 44.580517 3.195213 36,025 68 428 64
2018-05-19 21:11:22 GMT 44.575302 3.176523 36,025 68 429 64
2018-05-19 21:11:19 GMT 44.573502 3.169948 36,025 68 429 64
2018-05-19 21:11:12 GMT 44.568878 3.153403 36,000 68 429 0
2018-05-19 21:11:09 GMT 44.565948 3.142827 36,000 68 429 0
2018-05-19 21:11:04 GMT 44.563015 3.132376 36,000 68 429 0
2018-05-19 21:10:58 GMT 44.558258 3.115278 36,000 68 428 0
2018-05-19 21:10:54 GMT 44.555649 3.105861 36,000 68 429 0
2018-05-19 21:10:50 GMT 44.553085 3.096575 36,000 68 429 0
2018-05-19 21:10:47 GMT 44.550797 3.088270 36,000 68 429 0
2018-05-19 21:10:44 GMT 44.548187 3.078853 36,000 68 429 0
2018-05-19 21:10:38 GMT 44.543289 3.061131 36,000 68 429 -64
2018-05-19 21:10:33 GMT 44.540726 3.051845 36,000 68 429 -64
2018-05-19 21:10:30 GMT 44.537750 3.040924 36,000 66 429 64
2018-05-19 21:10:26 GMT 44.535416 3.032423 36,000 69 429 -64
2018-05-19 21:10:20 GMT 44.531204 3.016990 36,025 69 429 0
2018-05-19 21:10:13 GMT 44.526237 2.998732 36,025 69 429 64
2018-05-19 21:10:07 GMT 44.522327 2.984396 36,000 62 428 64
2018-05-19 21:10:02 GMT 44.518696 2.971668 36,000 66 429 64
2018-05-19 21:09:58 GMT 44.515297 2.960815 36,000 62 428 64
2018-05-19 21:09:55 GMT 44.511612 2.950287 36,000 62 428 64
2018-05-19 21:09:52 GMT 44.509850 2.945542 36,000 60 429 0
2018-05-19 21:09:49 GMT 44.506592 2.937168 36,000 59 429 0
2018-05-19 21:09:44 GMT 44.501816 2.926025 36,000 57 429 0
2018-05-19 21:09:41 GMT 44.498932 2.919551 36,000 57 429 0
2018-05-19 21:09:37 GMT 44.494629 2.910134 36,000 57 428 0
2018-05-19 21:09:34 GMT 44.489464 2.898783 36,000 57 428 0
2018-05-19 21:09:29 GMT 44.486668 2.892620 36,000 57 428 0
2018-05-19 21:09:26 GMT 44.482819 2.884107 36,000 57 428 0
2018-05-19 21:09:20 GMT 44.476730 2.870636 36,000 57 428 0
2018-05-19 21:09:15 GMT 44.471283 2.858669 36,000 57 428 0
2018-05-19 21:09:10 GMT 44.465836 2.846701 36,000 57 428 0
2018-05-19 21:09:05 GMT 44.460663 2.835323 36,000 57 428 0
2018-05-19 21:09:02 GMT 44.456131 2.825295 36,000 57 428 0
2018-05-19 21:08:59 GMT 44.454548 2.821879 36,000 57 428 0
2018-05-19 21:08:56 GMT 44.450912 2.813808 36,000 57 428 64
2018-05-19 21:08:48 GMT 44.443222 2.796936 36,000 57 428 64
2018-05-19 21:08:45 GMT 44.439331 2.788500 36,000 57 428 0
2018-05-19 21:08:41 GMT 44.434341 2.777579 36,000 57 428 64
2018-05-19 21:08:37 GMT 44.431644 2.771569 36,000 57 428 64
2018-05-19 21:08:33 GMT 44.426651 2.760707 36,000 57 428 0
2018-05-19 21:08:30 GMT 44.423496 2.753683 36,000 57 428 0
2018-05-19 21:08:27 GMT 44.420982 2.748190 36,000 57 428 0
2018-05-19 21:08:22 GMT 44.414280 2.733452 36,000 57 428 0
2018-05-19 21:08:17 GMT 44.410126 2.724348 36,000 57 428 0
2018-05-19 21:08:12 GMT 44.404266 2.711465 36,000 57 428 0
2018-05-19 21:08:09 GMT 44.400833 2.704075 36,000 57 428 -64
2018-05-19 21:08:06 GMT 44.397079 2.695770 36,000 57 428 -64
2018-05-19 21:08:02 GMT 44.393379 2.687698 36,000 57 427 0
2018-05-19 21:07:58 GMT 44.389709 2.679683 36,000 57 427 0
2018-05-19 21:07:54 GMT 44.385910 2.671313 36,000 57 426 0
2018-05-19 21:07:50 GMT 44.380299 2.659093 36,000 57 426 64
2018-05-19 21:07:45 GMT 44.376434 2.650586 36,000 57 426 64
2018-05-19 21:07:39 GMT 44.369637 2.635714 36,000 57 426 0
2018-05-19 21:07:35 GMT 44.363571 2.622463 36,000 57 426 -64
2018-05-19 21:07:32 GMT 44.361908 2.618832 36,000 57 427 0
2018-05-19 21:07:29 GMT 44.359440 2.613473 36,000 57 427 0
2018-05-19 21:07:24 GMT 44.354050 2.601602 36,000 57 427 0
2018-05-19 21:07:19 GMT 44.348362 2.589156 36,000 57 426 0
2018-05-19 21:07:14 GMT 44.343380 2.578304 36,000 57 426 0
2018-05-19 21:07:09 GMT 44.337433 2.565438 36,000 57 426 64
2018-05-19 21:07:04 GMT 44.332256 2.554187 36,000 57 426 64
2018-05-19 21:07:00 GMT 44.327881 2.544742 36,000 57 426 64
2018-05-19 21:06:53 GMT 44.320011 2.527659 35,975 57 426 64
2018-05-19 21:06:49 GMT 44.316753 2.520625 35,975 57 426 0
2018-05-19 21:06:43 GMT 44.309956 2.505821 35,975 57 426 0
2018-05-19 21:06:39 GMT 44.305664 2.496512 35,975 57 426 0
2018-05-19 21:06:31 GMT 44.297012 2.477744 36,000 57 426 -64
2018-05-19 21:06:28 GMT 44.294495 2.472316 35,975 57 426 -64
2018-05-19 21:06:22 GMT 44.287674 2.457537 36,000 57 426 0
2018-05-19 21:06:18 GMT 44.283142 2.447741 36,000 57 426 0
2018-05-19 21:06:10 GMT 44.275406 2.430921 36,000 57 426 0
2018-05-19 21:06:05 GMT 44.269081 2.417193 36,000 57 426 -64
2018-05-19 21:06:01 GMT 44.265408 2.409221 36,000 57 426 -64
2018-05-19 21:05:56 GMT 44.260437 2.398420 36,000 57 426 0
2018-05-19 21:05:50 GMT 44.253616 2.383706 36,000 57 426 0
2018-05-19 21:05:46 GMT 44.248646 2.372913 36,000 57 426 0
2018-05-19 21:05:40 GMT 44.242538 2.359576 36,000 57 426 0
2018-05-19 21:05:36 GMT 44.238453 2.350739 36,000 57 426 0
2018-05-19 21:05:30 GMT 44.232075 2.337006 36,000 57 426 0
2018-05-19 21:05:25 GMT 44.226627 2.325216 36,000 57 426 0
2018-05-19 21:05:20 GMT 44.221161 2.313407 36,000 57 426 0
2018-05-19 21:05:15 GMT 44.215919 2.302105 36,000 57 426 0
2018-05-19 21:05:09 GMT 44.209961 2.289243 36,000 57 426 0
2018-05-19 21:05:04 GMT 44.204285 2.276983 36,000 57 427 0
2018-05-19 21:05:00 GMT 44.199718 2.267136 36,000 57 427 0
2018-05-19 21:04:57 GMT 44.197159 2.261710 36,000 57 427 0
2018-05-19 21:04:54 GMT 44.193558 2.253858 36,000 57 427 0
2018-05-19 21:04:48 GMT 44.187153 2.240165 36,000 57 427 64
2018-05-19 21:04:42 GMT 44.180725 2.226432 36,000 57 427 64
2018-05-19 21:04:37 GMT 44.175476 2.215086 36,000 57 427 0
2018-05-19 21:04:33 GMT 44.170856 2.205244 36,000 57 428 0
2018-05-19 21:04:29 GMT 44.166733 2.196371 36,000 57 428 0
2018-05-19 21:04:26 GMT 44.163803 2.189984 36,000 57 428 0
2018-05-19 21:04:19 GMT 44.155540 2.172219 36,000 57 428 0
2018-05-19 21:04:16 GMT 44.152798 2.166334 36,000 57 428 0
2018-05-19 21:04:11 GMT 44.148010 2.156003 36,000 57 428 0
2018-05-19 21:04:08 GMT 44.144371 2.148089 36,000 57 428 -64
2018-05-19 21:04:05 GMT 44.141857 2.142661 36,000 57 428 0
2018-05-19 21:04:01 GMT 44.137253 2.132817 36,000 57 427 0
2018-05-19 21:03:58 GMT 44.133362 2.124513 36,000 57 427 0
2018-05-19 21:03:55 GMT 44.130386 2.118062 36,000 57 427 0
2018-05-19 21:03:48 GMT 44.122398 2.100874 36,000 57 427 0
2018-05-19 21:03:45 GMT 44.119171 2.093981 36,025 57 427 0
2018-05-19 21:03:40 GMT 44.114136 2.083187 36,000 57 427 -64
2018-05-19 21:03:37 GMT 44.111115 2.076735 36,025 57 428 -64
2018-05-19 21:03:29 GMT 44.103127 2.059544 36,025 57 427 -64
2018-05-19 21:03:26 GMT 44.099899 2.052655 36,025 57 427 -64
2018-05-19 21:03:23 GMT 44.096233 2.044830 36,025 57 427 0
2018-05-19 21:03:19 GMT 44.091438 2.034498 36,025 57 427 0
2018-05-19 21:03:15 GMT 44.087994 2.027174 36,025 57 427 0
2018-05-19 21:03:06 GMT 44.077377 2.004494 36,025 57 427 0
2018-05-19 21:02:56 GMT 44.065651 1.979436 36,025 57 427 0
2018-05-19 21:02:52 GMT 44.063137 1.974008 36,025 57 427 0
2018-05-19 21:02:47 GMT 44.056946 1.960863 36,025 57 427 0
2018-05-19 21:02:44 GMT 44.054626 1.955886 36,025 57 427 0
2018-05-19 21:02:41 GMT 44.051453 1.949027 36,025 57 427 0
2018-05-19 21:02:34 GMT 44.043869 1.932827 36,025 57 427 0
2018-05-19 21:02:28 GMT 44.037369 1.919030 36,025 56 428 64
2018-05-19 21:02:25 GMT 44.032104 1.907853 36,025 56 428 64
2018-05-19 21:02:19 GMT 44.027290 1.897561 36,000 56 428 64
2018-05-19 21:02:16 GMT 44.023800 1.890172 36,000 56 428 64
2018-05-19 21:02:13 GMT 44.020775 1.883763 36,000 56 428 64
2018-05-19 21:02:10 GMT 44.017330 1.876439 36,000 56 429 64
2018-05-19 21:02:03 GMT 44.009926 1.860809 36,000 56 429 0
2018-05-19 21:01:59 GMT 44.005505 1.851458 36,000 56 428 0
2018-05-19 21:01:53 GMT 43.999081 1.837790 36,000 56 427 64
2018-05-19 21:01:48 GMT 43.993744 1.826477 36,000 56 427 64
2018-05-19 21:01:45 GMT 43.990517 1.819611 35,975 56 427 64
2018-05-19 21:01:42 GMT 43.986420 1.811020 35,975 56 427 64
2018-05-19 21:01:35 GMT 43.979202 1.795676 35,975 56 427 64
2018-05-19 21:01:32 GMT 43.976028 1.788919 35,975 56 427 0
2018-05-19 21:01:25 GMT 43.967239 1.770268 35,975 56 427 0
2018-05-19 21:01:22 GMT 43.965179 1.765861 35,975 56 427 -64
2018-05-19 21:01:16 GMT 43.959457 1.753725 35,975 56 427 -64
2018-05-19 21:01:11 GMT 43.953461 1.741014 36,000 56 425 -64
2018-05-19 21:01:04 GMT 43.945869 1.724919 36,000 56 426 -64
2018-05-19 21:01:01 GMT 43.942890 1.718641 36,000 56 426 -64
2018-05-19 21:00:51 GMT 43.931812 1.695164 36,000 56 425 64
2018-05-19 21:00:42 GMT 43.921921 1.674329 36,000 56 425 0
2018-05-19 21:00:39 GMT 43.917801 1.665578 36,000 56 425 0
2018-05-19 21:00:36 GMT 43.915970 1.661746 36,000 56 425 -64
2018-05-19 21:00:32 GMT 43.910213 1.649519 36,000 56 426 0
2018-05-19 21:00:29 GMT 43.908398 1.645726 36,000 56 426 -64
2018-05-19 21:00:25 GMT 43.903275 1.635001 36,025 56 426 0
2018-05-19 21:00:20 GMT 43.898254 1.624316 36,000 56 425 0
2018-05-19 21:00:14 GMT 43.890614 1.608385 36,000 56 425 64
2018-05-19 21:00:10 GMT 43.886719 1.600108 35,975 56 425 128
2018-05-19 21:00:02 GMT 43.878891 1.583692 36,000 56 426 64
2018-05-19 20:59:59 GMT 43.875916 1.577432 35,975 56 426 64
2018-05-19 20:59:51 GMT 43.866920 1.558489 35,975 56 426 0
2018-05-19 20:59:48 GMT 43.862961 1.550249 35,975 56 426 0
2018-05-19 20:59:41 GMT 43.854908 1.533247 36,000 56 426 -64
2018-05-19 20:59:37 GMT 43.852348 1.527884 35,975 56 426 0
2018-05-19 20:59:32 GMT 43.846577 1.515786 36,000 56 425 -64
2018-05-19 20:59:27 GMT 43.840851 1.503722 36,000 56 425 0
2018-05-19 20:59:23 GMT 43.837173 1.496037 36,000 56 425 0
2018-05-19 20:59:17 GMT 43.830963 1.482963 36,000 56 424 0
2018-05-19 20:59:13 GMT 43.825439 1.471383 36,000 56 424 0
2018-05-19 20:59:10 GMT 43.823345 1.467002 36,000 56 424 0
2018-05-19 20:59:06 GMT 43.818039 1.455885 36,000 56 424 0
2018-05-19 20:59:00 GMT 43.811829 1.442850 36,000 56 424 0
2018-05-19 20:58:55 GMT 43.807007 1.432735 36,000 56 424 0
2018-05-19 20:58:47 GMT 43.798050 1.413915 36,000 56 424 0
2018-05-19 20:58:43 GMT 43.793655 1.404781 36,000 56 424 0
2018-05-19 20:58:36 GMT 43.786709 1.390228 36,000 56 424 0
2018-05-19 20:58:33 GMT 43.782333 1.381138 36,000 56 424 0
2018-05-19 20:58:24 GMT 43.772884 1.361324 36,000 56 424 -64
2018-05-19 20:58:21 GMT 43.770184 1.355634 36,000 56 424 -64
2018-05-19 20:58:15 GMT 43.763248 1.341182 36,000 56 424 0
2018-05-19 20:58:11 GMT 43.759056 1.332419 36,000 56 424 64
2018-05-19 20:58:08 GMT 43.756310 1.326730 36,000 56 424 0
2018-05-19 20:58:05 GMT 43.752594 1.318934 36,000 56 424 0
2018-05-19 20:58:02 GMT 43.749420 1.312278 36,000 56 424 64
2018-05-19 20:57:56 GMT 43.742706 1.298239 36,000 56 425 64
2018-05-19 20:57:53 GMT 43.740143 1.292938 36,000 56 425 64
2018-05-19 20:57:50 GMT 43.736664 1.285656 36,000 56 425 64
2018-05-19 20:57:45 GMT 43.731590 1.275068 36,000 56 425 0
2018-05-19 20:57:41 GMT 43.726273 1.264003 36,000 56 425 0
2018-05-19 20:57:34 GMT 43.717941 1.246629 36,000 56 425 0
2018-05-19 20:57:31 GMT 43.715836 1.242285 36,000 56 425 0
2018-05-19 20:57:28 GMT 43.713062 1.236485 36,000 56 425 0
2018-05-19 20:57:23 GMT 43.707012 1.223929 36,000 56 425 0
2018-05-19 20:57:20 GMT 43.704025 1.217694 36,000 56 425 0
2018-05-19 20:57:10 GMT 43.692856 1.194572 36,000 56 425 0
2018-05-19 20:57:00 GMT 43.681961 1.171960 36,000 56 426 0
2018-05-19 20:56:54 GMT 43.674843 1.157161 36,000 56 426 0
2018-05-19 20:56:50 GMT 43.669865 1.146894 36,000 56 426 0
2018-05-19 20:56:43 GMT 43.662460 1.131526 36,000 56 426 -64
2018-05-19 20:56:39 GMT 43.658970 1.124268 36,025 56 426 -64
2018-05-19 20:56:31 GMT 43.650604 1.106936 36,025 56 426 0
2018-05-19 20:56:28 GMT 43.647537 1.100613 36,025 56 426 0
2018-05-19 20:56:20 GMT 43.639206 1.083239 36,025 56 426 0
2018-05-19 20:56:15 GMT 43.633163 1.070784 36,025 56 426 0
2018-05-19 20:56:10 GMT 43.627548 1.059200 36,025 56 426 0
2018-05-19 20:56:05 GMT 43.620758 1.045234 36,025 56 426 0
2018-05-19 20:56:00 GMT 43.616776 1.036994 36,025 56 426 0
2018-05-19 20:55:57 GMT 43.613068 1.029314 36,025 56 427 64
2018-05-19 20:55:54 GMT 43.610043 1.023036 36,025 56 427 0
2018-05-19 20:55:50 GMT 43.605343 1.013358 36,025 56 427 0
2018-05-19 20:55:47 GMT 43.601624 1.005696 36,025 56 427 0
2018-05-19 20:55:43 GMT 43.597240 0.996617 36,000 56 428 0
2018-05-19 20:55:39 GMT 43.593426 0.988770 36,000 56 428 0
2018-05-19 20:55:36 GMT 43.590134 0.981999 36,000 56 428 0
2018-05-19 20:55:32 GMT 43.586395 0.974252 36,025 56 427 -64
2018-05-19 20:55:28 GMT 43.582169 0.965583 36,025 56 427 0
2018-05-19 20:55:25 GMT 43.578434 0.957903 36,025 56 427 0
2018-05-19 20:55:19 GMT 43.570084 0.940609 36,025 56 428 64
2018-05-19 20:55:15 GMT 43.566055 0.932241 36,000 56 428 64
2018-05-19 20:55:10 GMT 43.561615 0.923107 36,000 56 428 128
2018-05-19 20:55:07 GMT 43.559254 0.918209 36,000 56 428 128
2018-05-19 20:55:03 GMT 43.554832 0.909053 36,000 56 428 64
2018-05-19 20:55:00 GMT 43.551544 0.902220 36,000 56 429 64
2018-05-19 20:54:57 GMT 43.547607 0.894108 36,000 56 429 64
2018-05-19 20:54:53 GMT 43.543381 0.885380 36,000 56 428 0
2018-05-19 20:54:49 GMT 43.539330 0.877141 35,975 56 428 0
2018-05-19 20:54:46 GMT 43.534721 0.867658 36,000 56 428 0
2018-05-19 20:54:42 GMT 43.531605 0.861184 36,000 56 428 0
2018-05-19 20:54:39 GMT 43.527412 0.852618 36,000 56 428 0
2018-05-19 20:54:36 GMT 43.524994 0.847648 36,000 56 428 0
2018-05-19 20:54:32 GMT 43.520058 0.837577 36,000 56 428 0
2018-05-19 20:54:29 GMT 43.516567 0.830383 36,000 56 428 -64
2018-05-19 20:54:26 GMT 43.513229 0.823591 36,000 56 428 -64
2018-05-19 20:54:22 GMT 43.508286 0.813435 36,000 56 428 0
2018-05-19 20:54:15 GMT 43.501236 0.799000 36,000 56 428 0
2018-05-19 20:54:10 GMT 43.496315 0.788858 36,000 56 428 -64
2018-05-19 20:54:05 GMT 43.490452 0.776825 36,000 56 428 -64
2018-05-19 20:54:01 GMT 43.485031 0.765722 36,000 56 428 -64
2018-05-19 20:53:57 GMT 43.481701 0.758972 36,000 56 428 -64
2018-05-19 20:53:54 GMT 43.478897 0.753202 36,000 56 428 -64
2018-05-19 20:53:50 GMT 43.473495 0.742152 36,025 56 428 -64
2018-05-19 20:53:47 GMT 43.470665 0.736346 36,025 56 428 -64
2018-05-19 20:53:44 GMT 43.467548 0.730068 36,025 56 428 -64
2018-05-19 20:53:39 GMT 43.461914 0.718519 36,025 56 428 -64
2018-05-19 20:53:33 GMT 43.455536 0.705479 36,025 56 428 0
2018-05-19 20:53:29 GMT 43.450607 0.695396 36,025 56 428 0
2018-05-19 20:53:26 GMT 43.446365 0.686711 36,025 56 428 0
2018-05-19 20:53:23 GMT 43.444038 0.681937 36,025 56 428 0
2018-05-19 20:53:18 GMT 43.439072 0.671827 36,025 56 428 0
2018-05-19 20:53:13 GMT 43.432728 0.658853 36,025 56 428 64
2018-05-19 20:53:08 GMT 43.427280 0.647736 36,025 56 428 64
2018-05-19 20:53:02 GMT 43.421181 0.635245 36,025 56 428 64
2018-05-19 20:52:57 GMT 43.415497 0.623730 36,000 56 429 64
2018-05-19 20:52:54 GMT 43.411919 0.616411 36,000 56 429 64
2018-05-19 20:52:51 GMT 43.409122 0.610722 36,000 56 429 64
2018-05-19 20:52:46 GMT 43.403687 0.599649 36,000 56 429 64
2018-05-19 20:52:42 GMT 43.398464 0.589076 36,000 56 429 64
2018-05-19 20:52:35 GMT 43.391388 0.574624 35,975 56 429 64
2018-05-19 20:52:31 GMT 43.385284 0.562283 35,975 55 429 0
2018-05-19 20:52:25 GMT 43.379936 0.551474 35,975 55 429 0
2018-05-19 20:52:21 GMT 43.375214 0.541971 35,975 55 429 0
2018-05-19 20:52:16 GMT 43.368156 0.527605 35,975 55 429 0
2018-05-19 20:52:13 GMT 43.365738 0.522745 35,975 55 429 0
2018-05-19 20:52:10 GMT 43.362896 0.517011 35,975 55 428 0
2018-05-19 20:52:06 GMT 43.358566 0.508248 35,975 55 428 0
2018-05-19 20:52:03 GMT 43.354099 0.499159 36,000 55 428 0
2018-05-19 20:51:59 GMT 43.350128 0.491191 35,975 55 428 0
2018-05-19 20:51:56 GMT 43.347244 0.485315 35,975 55 428 0
2018-05-19 20:51:52 GMT 43.342712 0.476181 36,000 55 428 -64
2018-05-19 20:51:48 GMT 43.338459 0.467507 35,975 55 428 -64
2018-05-19 20:51:44 GMT 43.333740 0.457977 35,975 55 429 0
2018-05-19 20:51:41 GMT 43.330917 0.452271 36,000 55 429 0
2018-05-19 20:51:38 GMT 43.327332 0.445077 36,000 55 429 0
2018-05-19 20:51:35 GMT 43.323990 0.438303 36,000 55 428 -64
2018-05-19 20:51:32 GMT 43.320210 0.430690 36,000 55 428 0
2018-05-19 20:51:27 GMT 43.314342 0.418854 36,000 55 428 -64
2018-05-19 20:51:23 GMT 43.309547 0.409175 36,000 55 428 -64
2018-05-19 20:51:20 GMT 43.308151 0.406303 36,000 55 428 0
2018-05-19 20:51:16 GMT 43.303619 0.397105 36,000 55 428 -64
2018-05-19 20:51:10 GMT 43.296982 0.383755 36,000 55 428 -64
2018-05-19 20:51:06 GMT 43.292038 0.373663 36,000 55 428 0
2018-05-19 20:51:03 GMT 43.287277 0.364082 36,000 55 428 0
2018-05-19 20:50:59 GMT 43.283058 0.355421 36,000 55 428 0
2018-05-19 20:50:55 GMT 43.279083 0.347411 36,000 55 428 0
2018-05-19 20:50:50 GMT 43.273819 0.336744 36,000 55 428 0
2018-05-19 20:50:45 GMT 43.268394 0.325732 36,025 55 429 0
2018-05-19 20:50:42 GMT 43.264812 0.318604 36,000 55 429 0
2018-05-19 20:50:38 GMT 43.259365 0.307552 36,000 55 429 64
2018-05-19 20:50:33 GMT 43.255779 0.300358 36,000 55 429 64
2018-05-19 20:50:27 GMT 43.247223 0.283090 36,000 55 429 64
2018-05-19 20:50:23 GMT 43.243057 0.274658 36,000 55 429 64
2018-05-19 20:50:18 GMT 43.238880 0.266288 36,000 55 429 0
2018-05-19 20:50:13 GMT 43.232738 0.253928 36,000 55 429 0
2018-05-19 20:50:09 GMT 43.227951 0.244318 36,000 55 429 0
2018-05-19 20:50:05 GMT 43.223145 0.234673 36,000 55 429 0
2018-05-19 20:50:02 GMT 43.220306 0.228924 36,000 55 429 0
2018-05-19 20:49:59 GMT 43.216003 0.220301 36,000 55 430 0
2018-05-19 20:49:51 GMT 43.207504 0.203247 36,000 55 430 0
2018-05-19 20:49:48 GMT 43.204834 0.197818 36,000 55 430 0
2018-05-19 20:49:41 GMT 43.196938 0.181994 36,000 55 431 64
2018-05-19 20:49:38 GMT 43.192841 0.173819 36,000 55 431 0
2018-05-19 20:49:32 GMT 43.185425 0.159046 36,000 55 430 0
2018-05-19 20:49:27 GMT 43.181351 0.150870 36,000 55 430 0
2018-05-19 20:49:22 GMT 43.176315 0.140795 36,000 55 431 0
2018-05-19 20:49:19 GMT 43.171616 0.131378 36,000 55 431 0
2018-05-19 20:49:16 GMT 43.169147 0.126408 36,000 55 431 0
2018-05-19 20:49:13 GMT 43.165051 0.118234 36,000 55 430 0
2018-05-19 20:49:06 GMT 43.158394 0.104828 36,000 55 431 -64
2018-05-19 20:49:02 GMT 43.152855 0.093776 36,000 55 431 -64
2018-05-19 20:48:56 GMT 43.146423 0.080864 36,025 55 431 0
2018-05-19 20:48:52 GMT 43.141171 0.070365 36,000 55 431 0
2018-05-19 20:48:45 GMT 43.134201 0.056401 36,025 55 431 0
2018-05-19 20:48:40 GMT 43.129158 0.046365 36,025 55 431 0
2018-05-19 20:48:36 GMT 43.122986 0.033917 36,000 55 431 0
2018-05-19 20:48:31 GMT 43.117676 0.023314 36,025 55 431 -64
2018-05-19 20:48:25 GMT 43.112228 0.012392 36,025 55 431 0
2018-05-19 20:48:22 GMT 43.108337 0.004599 36,025 55 431 0
2018-05-19 20:48:19 GMT 43.105232 -0.001569 36,025 55 431 0
2018-05-19 20:48:14 GMT 43.098267 -0.015521 36,025 55 431 0
2018-05-19 20:48:08 GMT 43.093220 -0.025569 36,025 55 431 0
2018-05-19 20:48:03 GMT 43.087006 -0.038005 36,025 55 431 64
2018-05-19 20:47:58 GMT 43.082199 -0.047586 36,025 55 431 64
2018-05-19 20:47:53 GMT 43.076157 -0.059531 36,000 55 432 0
2018-05-19 20:47:48 GMT 43.070389 -0.071028 36,000 55 432 0
2018-05-19 20:47:43 GMT 43.064312 -0.083117 36,000 55 432 0
2018-05-19 20:47:37 GMT 43.057800 -0.096003 36,000 55 432 0
2018-05-19 20:47:32 GMT 43.051254 -0.108969 36,000 55 432 0
2018-05-19 20:47:27 GMT 43.045349 -0.120786 36,000 55 432 0
2018-05-19 20:47:21 GMT 43.040150 -0.130986 36,000 55 432 0
2018-05-19 20:47:16 GMT 43.033867 -0.143476 36,000 55 432 0
2018-05-19 20:47:11 GMT 43.028046 -0.154986 36,000 55 432 0
2018-05-19 20:47:07 GMT 43.022552 -0.165972 36,000 55 432 0
2018-05-19 20:47:03 GMT 43.018925 -0.173165 36,000 55 432 0
2018-05-19 20:47:00 GMT 43.016224 -0.178462 36,000 55 432 0
2018-05-19 20:46:56 GMT 43.009289 -0.192261 36,000 55 432 0
2018-05-19 20:46:49 GMT 43.003933 -0.202920 36,000 55 432 0
2018-05-19 20:46:45 GMT 42.998627 -0.213449 36,000 55 432 0
2018-05-19 20:46:42 GMT 42.995461 -0.219727 36,000 55 432 0
2018-05-19 20:46:39 GMT 42.991177 -0.228228 36,000 55 432 0
2018-05-19 20:46:35 GMT 42.986290 -0.237906 36,000 55 432 0
2018-05-19 20:46:31 GMT 42.981030 -0.248304 36,000 55 432 64
2018-05-19 20:46:28 GMT 42.979958 -0.250397 36,000 55 432 64
2018-05-19 20:46:24 GMT 42.974884 -0.260468 36,000 55 433 64
2018-05-19 20:46:21 GMT 42.971252 -0.267661 36,000 55 433 0
2018-05-19 20:46:18 GMT 42.967850 -0.274339 36,000 55 433 0
2018-05-19 20:46:14 GMT 42.962780 -0.284402 36,000 55 433 0
2018-05-19 20:46:10 GMT 42.958683 -0.292511 36,000 55 433 0
2018-05-19 20:46:07 GMT 42.954868 -0.300031 36,000 55 433 0
2018-05-19 20:46:03 GMT 42.951141 -0.307426 36,000 55 433 64
2018-05-19 20:46:00 GMT 42.948257 -0.313176 36,000 55 433 64
2018-05-19 20:45:56 GMT 42.943649 -0.322266 36,000 55 433 64
2018-05-19 20:45:53 GMT 42.938576 -0.332271 35,975 55 433 64
2018-05-19 20:45:49 GMT 42.935875 -0.337568 35,975 55 433 0
2018-05-19 20:45:46 GMT 42.932053 -0.345239 35,975 55 433 64
2018-05-19 20:45:42 GMT 42.927155 -0.354820 35,975 55 433 64
2018-05-19 20:45:38 GMT 42.922577 -0.363890 35,975 55 433 64
2018-05-19 20:45:35 GMT 42.918556 -0.371900 35,975 55 433 64
2018-05-19 20:45:29 GMT 42.912411 -0.383998 35,975 55 433 0
2018-05-19 20:45:24 GMT 42.907337 -0.394069 35,975 55 433 0
2018-05-19 20:45:21 GMT 42.903660 -0.401197 35,975 55 433 0
2018-05-19 20:45:18 GMT 42.900787 -0.406941 35,975 55 433 0
2018-05-19 20:45:14 GMT 42.895157 -0.417991 35,975 55 432 0
2018-05-19 20:45:09 GMT 42.888885 -0.430383 35,975 55 432 0
2018-05-19 20:45:03 GMT 42.882385 -0.443158 35,950 55 433 0
2018-05-19 20:44:57 GMT 42.876480 -0.454719 35,975 55 433 0
2018-05-19 20:44:53 GMT 42.871628 -0.464300 35,975 55 433 0
2018-05-19 20:44:48 GMT 42.864368 -0.478494 35,975 55 433 0
2018-05-19 20:44:40 GMT 42.857201 -0.492488 35,975 55 433 -64
2018-05-19 20:44:37 GMT 42.853317 -0.500070 35,975 55 433 -64
2018-05-19 20:44:31 GMT 42.845398 -0.515591 35,975 55 433 -64
2018-05-19 20:44:27 GMT 42.841652 -0.522962 35,975 55 433 -64
2018-05-19 20:44:20 GMT 42.834343 -0.537284 35,975 55 433 -64
2018-05-19 20:44:16 GMT 42.829010 -0.547720 35,975 55 433 -64
2018-05-19 20:44:09 GMT 42.821915 -0.561611 36,000 55 433 -64
2018-05-19 20:44:06 GMT 42.816925 -0.571481 36,000 55 433 -64
2018-05-19 20:44:00 GMT 42.810791 -0.583617 36,000 55 433 -64
2018-05-19 20:43:56 GMT 42.805893 -0.593199 36,000 55 433 -64
2018-05-19 20:43:47 GMT 42.795914 -0.612862 36,025 55 434 -64
2018-05-19 20:43:44 GMT 42.793488 -0.617606 36,025 55 434 -64
2018-05-19 20:43:38 GMT 42.785976 -0.632416 36,025 55 435 -64
2018-05-19 20:43:34 GMT 42.781090 -0.642061 36,025 55 435 -64
2018-05-19 20:43:27 GMT 42.772797 -0.658243 36,025 55 436 0
2018-05-19 20:43:24 GMT 42.769821 -0.664049 36,025 54 435 0
2018-05-19 20:43:15 GMT 42.758930 -0.685113 36,050 54 436 64
2018-05-19 20:43:12 GMT 42.755722 -0.691265 36,050 54 436 64
2018-05-19 20:43:05 GMT 42.746933 -0.707994 36,025 54 437 0
2018-05-19 20:43:02 GMT 42.744186 -0.713237 36,050 54 437 64
2018-05-19 20:42:54 GMT 42.733837 -0.732635 36,025 54 438 64
2018-05-19 20:42:48 GMT 42.728027 -0.743637 36,025 54 438 64
2018-05-19 20:42:43 GMT 42.721710 -0.756246 36,025 59 438 0
2018-05-19 20:42:40 GMT 42.718597 -0.763238 36,025 60 438 0
2018-05-19 20:42:34 GMT 42.712967 -0.777845 36,025 65 437 -64
2018-05-19 20:42:31 GMT 42.711258 -0.783159 36,025 68 437 0
2018-05-19 20:42:28 GMT 42.708939 -0.790766 36,025 69 436 0
2018-05-19 20:42:21 GMT 42.704556 -0.809028 36,025 75 435 0
2018-05-19 20:42:16 GMT 42.702133 -0.822633 36,025 78 435 0
2018-05-19 20:42:12 GMT 42.700012 -0.836272 36,025 78 436 64
2018-05-19 20:42:09 GMT 42.698921 -0.843137 36,025 78 436 64
2018-05-19 20:42:04 GMT 42.697014 -0.855656 36,025 78 436 64
2018-05-19 20:42:01 GMT 42.695801 -0.863675 36,025 78 436 64
2018-05-19 20:41:56 GMT 42.693661 -0.877373 36,000 78 436 64
2018-05-19 20:41:51 GMT 42.691269 -0.892764 36,000 78 437 0
2018-05-19 20:41:43 GMT 42.687889 -0.914548 36,000 78 437 0
2018-05-19 20:41:40 GMT 42.686920 -0.920792 36,000 78 437 0
2018-05-19 20:41:33 GMT 42.683945 -0.940143 36,000 78 437 64
2018-05-19 20:41:30 GMT 42.682583 -0.948848 36,000 78 437 64
2018-05-19 20:41:23 GMT 42.679932 -0.965967 36,000 78 437 64
2018-05-19 20:41:18 GMT 42.678177 -0.977346 35,975 78 437 64
2018-05-19 20:41:13 GMT 42.675339 -0.995698 35,975 78 437 0
2018-05-19 20:41:09 GMT 42.673923 -1.004802 35,975 78 437 -64
2018-05-19 20:41:01 GMT 42.670898 -1.024220 35,975 78 437 -64
2018-05-19 20:40:58 GMT 42.669411 -1.033992 36,000 78 437 -64
2018-05-19 20:40:52 GMT 42.666943 -1.049961 36,000 78 437 -64
2018-05-19 20:40:48 GMT 42.664986 -1.062608 36,000 78 437 -64
2018-05-19 20:40:41 GMT 42.662704 -1.077347 36,000 78 436 -64
2018-05-19 20:40:37 GMT 42.660843 -1.089371 36,000 78 436 -64
2018-05-19 20:40:31 GMT 42.658264 -1.105936 36,025 78 436 0
2018-05-19 20:40:27 GMT 42.656467 -1.117412 36,025 78 436 0
2018-05-19 20:40:20 GMT 42.653870 -1.133901 36,025 77 436 0
2018-05-19 20:40:16 GMT 42.651489 -1.149195 36,025 77 436 0
2018-05-19 20:40:09 GMT 42.649338 -1.162990 36,025 77 436 64
2018-05-19 20:40:05 GMT 42.647434 -1.174962 36,000 77 436 0
2018-05-19 20:40:01 GMT 42.645390 -1.188120 36,000 77 436 64
2018-05-19 20:39:55 GMT 42.642746 -1.204688 36,000 77 436 0
2018-05-19 20:39:51 GMT 42.640873 -1.216672 36,000 77 436 64
2018-05-19 20:39:47 GMT 42.639988 -1.222357 36,000 77 436 64
2018-05-19 20:39:43 GMT 42.637939 -1.235259 36,000 77 436 64
2018-05-19 20:39:37 GMT 42.635834 -1.248571 36,000 77 436 0
2018-05-19 20:39:32 GMT 42.633453 -1.263428 36,000 77 437 0
2018-05-19 20:39:29 GMT 42.632309 -1.270794 36,000 77 437 0
2018-05-19 20:39:26 GMT 42.630569 -1.281717 36,000 77 437 0
2018-05-19 20:39:23 GMT 42.629887 -1.286231 36,000 77 437 0
2018-05-19 20:39:20 GMT 42.628162 -1.297153 36,000 77 437 0
2018-05-19 20:39:13 GMT 42.625351 -1.314801 36,000 77 437 0
2018-05-19 20:39:09 GMT 42.623840 -1.324539 36,000 77 436 0
2018-05-19 20:39:02 GMT 42.620762 -1.343909 36,000 77 436 0
2018-05-19 20:38:59 GMT 42.619411 -1.352468 36,000 77 436 0
2018-05-19 20:38:52 GMT 42.616608 -1.370107 36,000 77 436 64
2018-05-19 20:38:49 GMT 42.615234 -1.378659 35,975 77 436 64
2018-05-19 20:38:43 GMT 42.612946 -1.393016 35,975 77 436 64
2018-05-19 20:38:39 GMT 42.610794 -1.406687 35,975 77 436 64
2018-05-19 20:38:30 GMT 42.607166 -1.429436 35,975 77 436 64
2018-05-19 20:38:27 GMT 42.605988 -1.436837 35,975 77 436 64
2018-05-19 20:38:18 GMT 42.601868 -1.462493 35,950 77 436 0
2018-05-19 20:38:11 GMT 42.598976 -1.480791 35,975 77 436 -64
2018-05-19 20:38:08 GMT 42.597153 -1.492206 35,975 77 436 -64
2018-05-19 20:38:01 GMT 42.594086 -1.511556 35,975 77 436 -64
2018-05-19 20:37:58 GMT 42.593628 -1.514428 35,975 77 436 -64
2018-05-19 20:37:55 GMT 42.592529 -1.521294 35,975 77 436 -64
2018-05-19 20:37:48 GMT 42.589188 -1.542331 35,975 77 436 -64
2018-05-19 20:37:45 GMT 42.588272 -1.547949 35,975 77 435 -64
2018-05-19 20:37:37 GMT 42.584702 -1.570171 36,000 77 436 -64
2018-05-19 20:37:34 GMT 42.583427 -1.578135 36,000 77 436 -64
2018-05-19 20:37:29 GMT 42.580868 -1.594040 36,000 77 436 -64
2018-05-19 20:37:26 GMT 42.579941 -1.599822 36,000 77 436 -64
2018-05-19 20:37:23 GMT 42.578632 -1.607836 36,000 77 436 -64
2018-05-19 20:37:15 GMT 42.575455 -1.627662 36,000 77 436 -64
2018-05-19 20:37:08 GMT 42.571747 -1.650384 36,000 77 437 0
2018-05-19 20:37:05 GMT 42.570812 -1.656125 36,000 77 437 0
2018-05-19 20:36:55 GMT 42.565876 -1.686657 36,000 77 437 0
2018-05-19 20:36:47 GMT 42.562897 -1.705053 36,000 77 438 0
2018-05-19 20:36:43 GMT 42.561584 -1.713056 36,000 77 438 0
2018-05-19 20:36:34 GMT 42.557053 -1.741021 36,000 77 438 -64
2018-05-19 20:36:23 GMT 42.552608 -1.768479 36,025 77 439 -64
2018-05-19 20:36:12 GMT 42.548000 -1.797095 36,025 77 439 0
2018-05-19 20:36:04 GMT 42.544464 -1.818876 36,025 77 439 -64
2018-05-19 20:36:01 GMT 42.543438 -1.825136 36,025 77 440 -64
2018-05-19 20:35:57 GMT 42.541485 -1.837144 36,025 77 440 0
2018-05-19 20:35:54 GMT 42.539574 -1.848641 36,025 77 440 0
2018-05-19 20:35:49 GMT 42.537552 -1.861246 36,025 77 440 0
2018-05-19 20:35:43 GMT 42.535152 -1.875660 36,025 77 440 0
2018-05-19 20:35:40 GMT 42.534126 -1.881984 36,025 77 441 0
2018-05-19 20:35:32 GMT 42.530357 -1.904914 36,025 77 441 0
2018-05-19 20:35:29 GMT 42.529148 -1.912324 36,025 77 441 0
2018-05-19 20:35:23 GMT 42.525936 -1.931869 36,025 77 442 0
2018-05-19 20:35:19 GMT 42.523590 -1.946265 36,025 77 442 0
2018-05-19 20:35:12 GMT 42.521393 -1.959437 36,025 77 442 0
2018-05-19 20:35:07 GMT 42.518555 -1.976728 36,025 77 442 0
2018-05-19 20:35:02 GMT 42.516861 -1.987090 36,025 77 442 64
2018-05-19 20:34:56 GMT 42.514297 -2.002633 36,025 77 442 64
2018-05-19 20:34:51 GMT 42.512146 -2.015367 36,000 77 442 0
2018-05-19 20:34:48 GMT 42.510620 -2.024550 36,025 77 442 0
2018-05-19 20:34:42 GMT 42.507591 -2.043010 36,025 77 442 0
2018-05-19 20:34:39 GMT 42.506477 -2.049717 36,025 77 442 0
2018-05-19 20:34:35 GMT 42.504639 -2.060810 36,025 77 442 0
2018-05-19 20:34:29 GMT 42.502426 -2.074117 36,025 77 442 0
2018-05-19 20:34:24 GMT 42.499447 -2.091810 36,000 77 442 64
2018-05-19 20:34:20 GMT 42.498184 -2.099325 36,000 77 442 64
2018-05-19 20:34:16 GMT 42.496281 -2.110908 36,000 77 442 0
2018-05-19 20:34:13 GMT 42.494339 -2.122421 36,000 77 442 0
2018-05-19 20:34:09 GMT 42.493103 -2.129912 36,000 77 442 0
2018-05-19 20:34:06 GMT 42.491684 -2.138526 36,000 77 442 0
2018-05-19 20:34:01 GMT 42.489899 -2.149450 36,000 77 442 0
2018-05-19 20:33:58 GMT 42.488132 -2.160219 36,000 77 442 0
2018-05-19 20:33:53 GMT 42.484970 -2.179189 36,000 77 442 0
2018-05-19 20:33:49 GMT 42.484177 -2.184044 36,000 77 442 0
2018-05-19 20:33:45 GMT 42.482300 -2.195518 36,000 77 442 0
2018-05-19 20:33:41 GMT 42.480595 -2.205825 36,000 76 441 0
2018-05-19 20:33:38 GMT 42.479523 -2.212212 36,000 77 442 64
2018-05-19 20:33:32 GMT 42.475750 -2.235143 36,000 77 442 64
2018-05-19 20:33:28 GMT 42.474915 -2.240317 36,000 77 442 64
2018-05-19 20:33:24 GMT 42.472958 -2.252453 35,975 77 442 64
2018-05-19 20:33:16 GMT 42.470078 -2.270237 35,975 77 441 64
2018-05-19 20:33:13 GMT 42.468338 -2.280537 35,975 76 441 0
2018-05-19 20:33:09 GMT 42.466908 -2.288605 35,975 74 439 0
2018-05-19 20:33:06 GMT 42.465179 -2.297641 35,975 75 440 64
2018-05-19 20:33:02 GMT 42.463028 -2.308502 35,975 74 439 0
2018-05-19 20:32:56 GMT 42.459366 -2.325356 35,975 72 439 64
2018-05-19 20:32:51 GMT 42.456524 -2.337597 35,975 71 438 0
2018-05-19 20:32:44 GMT 42.451916 -2.355865 35,975 70 438 0
2018-05-19 20:32:41 GMT 42.449963 -2.363019 35,975 69 438 -64
2018-05-19 20:32:34 GMT 42.444946 -2.380912 35,975 68 437 -64
2018-05-19 20:32:30 GMT 42.442142 -2.390676 35,975 68 437 -64
2018-05-19 20:32:23 GMT 42.436832 -2.409200 35,975 68 437 -64
2018-05-19 20:32:19 GMT 42.433903 -2.419483 35,975 68 436 -64
2018-05-19 20:32:14 GMT 42.430298 -2.431974 35,975 68 436 -64
2018-05-19 20:32:10 GMT 42.426685 -2.444458 35,975 68 436 -64
2018-05-19 20:32:07 GMT 42.425148 -2.449887 35,975 68 436 -64
2018-05-19 20:32:02 GMT 42.421280 -2.463372 36,000 68 436 -64
2018-05-19 20:31:56 GMT 42.417328 -2.476970 36,000 68 436 -64
2018-05-19 20:31:53 GMT 42.415001 -2.485018 36,000 68 436 -64
2018-05-19 20:31:48 GMT 42.410934 -2.499015 36,000 68 436 -64
2018-05-19 20:31:45 GMT 42.409042 -2.505522 36,000 68 435 -64
2018-05-19 20:31:41 GMT 42.405899 -2.516369 36,000 68 435 -64
2018-05-19 20:31:37 GMT 42.403408 -2.525003 36,000 68 435 -64
2018-05-19 20:31:34 GMT 42.400894 -2.533690 36,000 68 435 -64
2018-05-19 20:31:31 GMT 42.398438 -2.542336 36,025 68 436 -64
2018-05-19 20:31:27 GMT 42.395634 -2.552022 36,025 68 436 -64
2018-05-19 20:31:23 GMT 42.392807 -2.561812 36,025 68 436 0
2018-05-19 20:31:16 GMT 42.387955 -2.578530 36,025 68 436 -64
2018-05-19 20:31:12 GMT 42.383438 -2.594051 36,025 68 436 -64
2018-05-19 20:31:06 GMT 42.380402 -2.604446 36,025 68 437 -64
2018-05-19 20:30:59 GMT 42.372986 -2.629915 36,025 68 437 0
2018-05-19 20:30:55 GMT 42.371521 -2.635096 36,025 68 437 0
2018-05-19 20:30:50 GMT 42.367657 -2.648280 36,025 68 437 0
2018-05-19 20:30:45 GMT 42.364353 -2.659650 36,025 68 437 0
2018-05-19 20:30:40 GMT 42.360901 -2.671550 36,025 68 438 0
2018-05-19 20:30:35 GMT 42.356140 -2.687843 36,050 68 438 0
2018-05-19 20:30:29 GMT 42.352203 -2.701423 36,025 68 438 0
2018-05-19 20:30:22 GMT 42.347778 -2.716561 36,025 68 438 0
2018-05-19 20:30:16 GMT 42.343552 -2.731226 36,025 68 438 64
2018-05-19 20:30:12 GMT 42.340530 -2.741526 36,025 68 438 64
2018-05-19 20:30:09 GMT 42.337509 -2.751888 36,025 68 438 64
2018-05-19 20:30:02 GMT 42.332649 -2.768682 36,025 68 438 64
2018-05-19 20:29:58 GMT 42.329910 -2.777918 36,025 68 438 0
2018-05-19 20:29:52 GMT 42.324463 -2.796707 36,025 68 438 128
2018-05-19 20:29:47 GMT 42.321259 -2.807693 36,000 68 438 128
2018-05-19 20:29:41 GMT 42.317139 -2.821863 36,000 68 438 0
2018-05-19 20:29:35 GMT 42.312447 -2.837922 36,000 68 438 64
2018-05-19 20:29:30 GMT 42.309036 -2.849516 36,000 68 438 0
2018-05-19 20:29:27 GMT 42.305790 -2.860661 36,000 68 438 0
2018-05-19 20:29:19 GMT 42.300854 -2.877524 36,000 68 437 0
2018-05-19 20:29:14 GMT 42.297035 -2.890618 36,000 68 437 0
2018-05-19 20:29:09 GMT 42.293545 -2.902498 36,000 68 437 0
2018-05-19 20:29:03 GMT 42.288849 -2.918556 36,000 68 436 0
2018-05-19 20:28:58 GMT 42.285965 -2.928418 36,000 68 436 0
2018-05-19 20:28:53 GMT 42.281673 -2.942931 35,975 68 436 0
2018-05-19 20:28:48 GMT 42.277863 -2.955884 35,975 68 436 0
2018-05-19 20:28:43 GMT 42.274338 -2.967807 35,975 68 435 64
2018-05-19 20:28:38 GMT 42.269897 -2.982851 35,975 68 435 0
2018-05-19 20:28:32 GMT 42.265961 -2.996209 35,975 68 435 0
2018-05-19 20:28:26 GMT 42.261936 -3.009743 35,975 68 435 0
2018-05-19 20:28:21 GMT 42.257996 -3.023113 35,975 68 434 0
2018-05-19 20:28:16 GMT 42.254333 -3.035535 35,975 68 434 0
2018-05-19 20:28:10 GMT 42.249573 -3.051577 35,975 68 434 0
2018-05-19 20:28:05 GMT 42.246414 -3.062252 36,000 68 433 0
2018-05-19 20:27:58 GMT 42.240692 -3.081540 35,975 68 433 0
2018-05-19 20:27:55 GMT 42.238476 -3.089011 36,000 68 433 -64
2018-05-19 20:27:45 GMT 42.230850 -3.114686 36,000 68 433 -64
2018-05-19 20:27:37 GMT 42.225266 -3.133413 36,000 68 433 0
2018-05-19 20:27:34 GMT 42.222885 -3.141403 36,000 68 433 0
2018-05-19 20:27:26 GMT 42.217339 -3.160038 36,000 68 433 0
2018-05-19 20:27:23 GMT 42.214966 -3.168023 36,000 68 432 0
2018-05-19 20:27:13 GMT 42.207321 -3.193651 36,000 68 433 -64
2018-05-19 20:27:03 GMT 42.198673 -3.222890 36,000 68 432 -64
2018-05-19 20:27:00 GMT 42.197369 -3.227298 36,000 68 432 0
2018-05-19 20:26:52 GMT 42.191830 -3.245949 36,000 68 432 -64
2018-05-19 20:26:41 GMT 42.183929 -3.272615 36,000 68 432 0
2018-05-19 20:26:35 GMT 42.177475 -3.294400 36,000 68 432 0
2018-05-19 20:26:31 GMT 42.176048 -3.299156 36,000 68 432 0
2018-05-19 20:26:25 GMT 42.170135 -3.318957 36,000 68 433 -64
2018-05-19 20:26:21 GMT 42.169052 -3.322615 36,025 68 433 -64
2018-05-19 20:26:15 GMT 42.162037 -3.346103 36,025 68 433 -64
2018-05-19 20:26:09 GMT 42.159660 -3.354088 36,025 68 433 -64
2018-05-19 20:26:04 GMT 42.153625 -3.374238 36,025 68 433 -64
2018-05-19 20:25:58 GMT 42.151245 -3.382166 36,025 68 433 -64
2018-05-19 20:25:55 GMT 42.147697 -3.394009 36,025 68 433 0
2018-05-19 20:25:47 GMT 42.143738 -3.407322 36,025 68 432 64
2018-05-19 20:25:39 GMT 42.137192 -3.429108 36,025 68 432 0
2018-05-19 20:25:35 GMT 42.133919 -3.440126 36,025 68 432 0
2018-05-19 20:25:28 GMT 42.129215 -3.455647 36,025 68 432 0
2018-05-19 20:25:18 GMT 42.121071 -3.482730 36,025 68 432 64
2018-05-19 20:25:12 GMT 42.114834 -3.503489 36,025 68 432 0
2018-05-19 20:25:07 GMT 42.113064 -3.509365 36,025 68 432 0
2018-05-19 20:24:59 GMT 42.105698 -3.533790 36,025 68 432 0
2018-05-19 20:24:55 GMT 42.104416 -3.538035 36,000 68 432 0
2018-05-19 20:24:46 GMT 42.096588 -3.564002 36,000 68 432 0
2018-05-19 20:24:42 GMT 42.095123 -3.568809 36,000 68 432 0
2018-05-19 20:24:38 GMT 42.091599 -3.580544 36,000 67 431 0
2018-05-19 20:24:34 GMT 42.088898 -3.589471 36,000 67 431 0
2018-05-19 20:24:30 GMT 42.085556 -3.600582 36,000 67 431 0
2018-05-19 20:24:27 GMT 42.083271 -3.608051 36,000 67 430 0
2018-05-19 20:24:24 GMT 42.081024 -3.615438 36,000 67 430 64
2018-05-19 20:24:17 GMT 42.074203 -3.638160 36,000 67 430 0
2018-05-19 20:24:13 GMT 42.073074 -3.641776 36,000 67 430 0
2018-05-19 20:24:02 GMT 42.065113 -3.668220 36,000 67 429 0
2018-05-19 20:23:54 GMT 42.057770 -3.692467 36,000 67 429 0
2018-05-19 20:23:51 GMT 42.056316 -3.697155 36,000 67 429 0
2018-05-19 20:23:45 GMT 42.052498 -3.709802 36,000 67 428 0
2018-05-19 20:23:42 GMT 42.049301 -3.720370 36,000 67 428 0
2018-05-19 20:23:34 GMT 42.042023 -3.744486 35,975 67 427 0
2018-05-19 20:23:30 GMT 42.041061 -3.747649 36,000 67 427 64
2018-05-19 20:23:21 GMT 42.033600 -3.772306 35,975 67 426 64
2018-05-19 20:23:14 GMT 42.029160 -3.786912 35,975 67 426 0
2018-05-19 20:23:10 GMT 42.025818 -3.797899 35,975 67 426 0
2018-05-19 20:23:04 GMT 42.021820 -3.810978 35,975 67 426 -64
2018-05-19 20:22:59 GMT 42.017399 -3.825606 35,975 67 425 -64
2018-05-19 20:22:53 GMT 42.013596 -3.838099 35,975 67 425 -64
2018-05-19 20:22:48 GMT 42.010117 -3.849522 35,975 67 425 -64
2018-05-19 20:22:43 GMT 42.005814 -3.863567 36,000 67 425 -64
2018-05-19 20:22:39 GMT 42.001850 -3.876641 36,000 67 424 -64
2018-05-19 20:22:34 GMT 41.998947 -3.886039 36,000 67 424 -64
2018-05-19 20:22:27 GMT 41.994076 -3.902063 36,000 67 424 -64
2018-05-19 20:22:23 GMT 41.990616 -3.913380 36,000 67 424 -64
2018-05-19 20:22:16 GMT 41.983932 -3.935165 36,025 67 423 -64
2018-05-19 20:22:12 GMT 41.982483 -3.939940 36,025 67 423 -64
2018-05-19 20:22:06 GMT 41.978340 -3.953481 36,025 67 423 -64
2018-05-19 20:22:02 GMT 41.975594 -3.962296 36,025 67 423 -64
2018-05-19 20:21:55 GMT 41.969238 -3.982981 36,025 67 423 -64
2018-05-19 20:21:52 GMT 41.967682 -3.988162 36,025 67 423 0
2018-05-19 20:21:40 GMT 41.958927 -4.016717 36,025 67 424 0
2018-05-19 20:21:31 GMT 41.952457 -4.037923 36,025 67 424 0
2018-05-19 20:21:20 GMT 41.944309 -4.064430 36,025 67 424 0
2018-05-19 20:21:11 GMT 41.937187 -4.087744 36,025 67 423 0
2018-05-19 20:21:00 GMT 41.929092 -4.114193 36,025 67 423 64
2018-05-19 20:20:52 GMT 41.922569 -4.135458 36,025 67 423 0
2018-05-19 20:20:47 GMT 41.919266 -4.146253 36,025 67 423 0
2018-05-19 20:20:41 GMT 41.914330 -4.162349 36,025 67 423 0
2018-05-19 20:20:35 GMT 41.910980 -4.173208 36,025 67 423 0
2018-05-19 20:20:27 GMT 41.905067 -4.192370 36,000 67 422 64
2018-05-19 20:20:19 GMT 41.898548 -4.213576 36,000 67 422 0
2018-05-19 20:20:14 GMT 41.892380 -4.233544 36,000 67 422 0
2018-05-19 20:20:04 GMT 41.885376 -4.256180 36,000 67 421 0
2018-05-19 20:19:55 GMT 41.879463 -4.275215 36,000 67 420 0
2018-05-19 20:19:45 GMT 41.871414 -4.301147 36,000 67 420 0
2018-05-19 20:19:37 GMT 41.867546 -4.313603 36,000 67 419 0
2018-05-19 20:19:32 GMT 41.862350 -4.330361 36,000 67 418 64
2018-05-19 20:19:27 GMT 41.859650 -4.339100 36,000 67 417 64
2018-05-19 20:19:22 GMT 41.855255 -4.353333 36,000 67 417 64
2018-05-19 20:19:15 GMT 41.851112 -4.366554 36,000 67 417 0
2018-05-19 20:19:11 GMT 41.847015 -4.379840 36,000 67 417 0
2018-05-19 20:19:06 GMT 41.844177 -4.388976 35,975 67 417 0
2018-05-19 20:19:01 GMT 41.839417 -4.404207 35,975 67 416 0
2018-05-19 20:18:54 GMT 41.835194 -4.417973 35,975 67 416 0
2018-05-19 20:18:50 GMT 41.831268 -4.430611 35,975 67 416 0
2018-05-19 20:18:45 GMT 41.828888 -4.438227 35,975 67 416 -64
2018-05-19 20:18:40 GMT 41.823257 -4.456517 35,975 67 416 0
2018-05-19 20:18:31 GMT 41.817410 -4.475587 35,975 67 415 0
2018-05-19 20:18:27 GMT 41.814240 -4.485855 35,975 67 415 0
2018-05-19 20:18:23 GMT 41.812088 -4.492784 35,975 67 415 0
2018-05-19 20:18:19 GMT 41.810165 -4.499089 35,975 67 415 0
2018-05-19 20:18:14 GMT 41.805496 -4.514195 35,975 67 414 0
2018-05-19 20:18:02 GMT 41.797672 -4.539461 35,975 67 413 0
2018-05-19 20:17:53 GMT 41.790024 -4.563571 35,975 63 410 -64
2018-05-19 20:17:44 GMT 41.781143 -4.587791 35,975 61 409 0
2018-05-19 20:17:40 GMT 41.779587 -4.591599 35,975 61 409 0
2018-05-19 20:17:32 GMT 41.771603 -4.611575 35,975 62 408 0
2018-05-19 20:17:22 GMT 41.763874 -4.631121 35,975 62 408 -64
2018-05-19 20:17:19 GMT 41.760773 -4.639039 35,975 62 408 -64
2018-05-19 20:17:10 GMT 41.752533 -4.660201 36,000 62 408 -64
2018-05-19 20:16:58 GMT 41.743103 -4.684608 36,000 62 409 -64
2018-05-19 20:16:49 GMT 41.734638 -4.706620 36,000 62 408 -64
2018-05-19 20:16:36 GMT 41.724335 -4.732985 36,000 61 409 0
2018-05-19 20:16:27 GMT 41.713211 -4.760326 36,000 60 407 0
2018-05-19 20:16:20 GMT 41.709175 -4.769663 36,000 56 406 0
2018-05-19 20:16:15 GMT 41.701916 -4.785823 36,000 57 407 0
2018-05-19 20:16:06 GMT 41.692787 -4.804602 36,000 56 406 0
2018-05-19 20:15:57 GMT 41.686226 -4.818080 36,000 56 406 0
2018-05-19 20:15:54 GMT 41.680965 -4.828874 36,000 56 406 0
2018-05-19 20:15:48 GMT 41.675720 -4.839665 36,000 56 406 0
2018-05-19 20:15:43 GMT 41.668900 -4.853585 36,000 56 407 0
2018-05-19 20:15:38 GMT 41.666489 -4.858512 36,000 56 407 0
2018-05-19 20:15:31 GMT 41.654896 -4.882209 36,000 56 407 0
2018-05-19 20:15:25 GMT 41.652893 -4.886361 36,000 56 407 0
2018-05-19 20:15:18 GMT 41.645828 -4.900714 36,000 56 407 0
2018-05-19 20:15:06 GMT 41.633995 -4.924941 36,000 56 407 0
2018-05-19 20:15:01 GMT 41.625641 -4.941913 36,000 56 406 0
2018-05-19 20:14:54 GMT 41.620819 -4.951832 36,000 56 406 0
2018-05-19 20:14:49 GMT 41.614208 -4.965309 36,000 56 406 0
2018-05-19 20:14:43 GMT 41.609833 -4.974316 36,000 56 406 0
2018-05-19 20:14:38 GMT 41.603302 -4.987668 36,000 56 406 0
2018-05-19 20:14:35 GMT 41.601967 -4.990348 36,000 56 406 0
2018-05-19 20:14:25 GMT 41.591446 -5.011888 36,000 56 406 0
2018-05-19 20:14:16 GMT 41.580925 -5.033399 36,000 56 406 -64
2018-05-19 20:14:13 GMT 41.578308 -5.038730 36,000 56 406 -64
2018-05-19 20:14:05 GMT 41.570591 -5.054477 36,025 56 407 -64
2018-05-19 20:14:01 GMT 41.567093 -5.061576 36,025 56 407 -64
2018-05-19 20:13:54 GMT 41.560070 -5.075939 36,025 56 406 0
2018-05-19 20:13:50 GMT 41.555237 -5.085734 36,025 56 406 0
2018-05-19 20:13:42 GMT 41.546219 -5.104086 36,025 56 407 0
2018-05-19 20:13:39 GMT 41.544479 -5.107706 36,025 56 407 0
2018-05-19 20:13:33 GMT 41.537888 -5.121127 36,025 56 407 0
2018-05-19 20:13:30 GMT 41.534840 -5.127294 36,000 56 407 0
2018-05-19 20:13:23 GMT 41.527588 -5.142101 36,000 56 407 0
2018-05-19 20:13:20 GMT 41.522781 -5.151821 36,025 56 407 0
2018-05-19 20:13:13 GMT 41.517654 -5.162201 36,000 56 406 0
2018-05-19 20:13:08 GMT 41.512585 -5.172517 36,000 56 406 0
2018-05-19 20:13:02 GMT 41.506668 -5.184548 36,000 56 406 0
2018-05-19 20:12:59 GMT 41.501831 -5.194361 36,000 56 406 0
2018-05-19 20:12:52 GMT 41.496059 -5.205987 36,000 56 406 0
2018-05-19 20:12:47 GMT 41.489777 -5.218761 36,000 56 406 0
2018-05-19 20:12:42 GMT 41.485306 -5.227768 36,000 56 405 64
2018-05-19 20:12:37 GMT 41.480209 -5.238044 36,000 56 405 64
2018-05-19 20:12:34 GMT 41.476742 -5.245141 36,000 56 405 64
2018-05-19 20:12:31 GMT 41.473248 -5.252167 36,000 56 405 0
2018-05-19 20:12:27 GMT 41.468994 -5.260766 36,000 56 405 0
2018-05-19 20:12:21 GMT 41.463520 -5.271841 36,000 56 405 0
2018-05-19 20:12:15 GMT 41.457001 -5.285048 36,000 56 405 0
2018-05-19 20:12:10 GMT 41.452721 -5.293622 36,000 56 404 0
2018-05-19 20:12:03 GMT 41.445053 -5.309081 35,975 56 404 0
2018-05-19 20:11:55 GMT 41.435402 -5.328625 36,000 56 404 0
2018-05-19 20:11:51 GMT 41.432980 -5.333479 36,000 56 404 0
2018-05-19 20:11:48 GMT 41.429947 -5.339605 36,000 56 403 0
2018-05-19 20:11:44 GMT 41.424229 -5.351044 36,000 56 403 0
2018-05-19 20:11:38 GMT 41.419601 -5.360392 36,000 56 403 0
2018-05-19 20:11:31 GMT 41.411911 -5.375873 36,000 56 403 0
2018-05-19 20:11:28 GMT 41.409519 -5.380682 36,000 56 403 0
2018-05-19 20:11:22 GMT 41.402710 -5.394412 36,000 56 402 0
2018-05-19 20:11:18 GMT 41.398952 -5.401952 36,000 56 402 64
2018-05-19 20:11:11 GMT 41.391548 -5.416899 35,975 56 402 64
2018-05-19 20:11:08 GMT 41.388710 -5.422583 35,975 56 402 0
2018-05-19 20:11:01 GMT 41.380600 -5.438843 35,975 56 403 0
2018-05-19 20:10:57 GMT 41.377956 -5.444100 35,975 56 403 0
2018-05-19 20:10:47 GMT 41.367157 -5.465698 35,975 56 402 0
2018-05-19 20:10:40 GMT 41.357849 -5.484436 35,975 56 402 0
2018-05-19 20:10:36 GMT 41.356247 -5.487671 35,975 56 402 0
2018-05-19 20:10:29 GMT 41.346581 -5.507022 35,975 56 402 -64
2018-05-19 20:10:26 GMT 41.345306 -5.509644 35,975 56 402 0
2018-05-19 20:10:20 GMT 41.339859 -5.520630 35,975 56 402 -64
2018-05-19 20:10:15 GMT 41.334805 -5.530742 36,000 56 402 -64
2018-05-19 20:10:05 GMT 41.324295 -5.551819 36,000 56 402 0
2018-05-19 20:09:55 GMT 41.312317 -5.575998 36,000 56 402 0
2018-05-19 20:09:50 GMT 41.307243 -5.586173 36,000 56 402 0
2018-05-19 20:09:44 GMT 41.300217 -5.600220 36,000 56 403 0
2018-05-19 20:09:39 GMT 41.297096 -5.606398 36,000 56 403 0
2018-05-19 20:09:36 GMT 41.292347 -5.615886 36,000 56 403 -64
2018-05-19 20:09:33 GMT 41.289413 -5.621765 36,000 56 403 -64
2018-05-19 20:09:29 GMT 41.285877 -5.628745 36,000 56 403 -64
2018-05-19 20:09:22 GMT 41.278152 -5.644104 36,025 56 403 -64
2018-05-19 20:09:17 GMT 41.274612 -5.651155 36,025 56 403 -64
2018-05-19 20:09:11 GMT 41.266418 -5.667447 36,025 56 403 -64
2018-05-19 20:09:06 GMT 41.263111 -5.674064 36,025 56 404 -64
2018-05-19 20:08:59 GMT 41.254314 -5.691605 36,025 56 404 -64
2018-05-19 20:08:56 GMT 41.252777 -5.694663 36,025 56 404 -64
2018-05-19 20:08:51 GMT 41.247482 -5.705200 36,025 56 404 -64
2018-05-19 20:08:48 GMT 41.242447 -5.715210 36,025 56 404 -64
2018-05-19 20:08:40 GMT 41.235535 -5.729004 36,050 56 404 0
2018-05-19 20:08:37 GMT 41.231548 -5.736923 36,050 56 404 0
2018-05-19 20:08:32 GMT 41.228245 -5.743540 36,050 56 404 0
2018-05-19 20:08:27 GMT 41.221123 -5.757647 36,050 56 404 0
2018-05-19 20:08:24 GMT 41.219166 -5.761580 36,050 56 404 0
2018-05-19 20:08:18 GMT 41.213860 -5.772129 36,025 56 404 64
2018-05-19 20:08:15 GMT 41.208984 -5.781799 36,025 56 404 64
2018-05-19 20:08:11 GMT 41.206558 -5.786682 36,025 56 405 0
2018-05-19 20:08:07 GMT 41.202347 -5.794983 36,025 56 405 0
2018-05-19 20:08:01 GMT 41.195892 -5.807773 36,025 56 405 0
2018-05-19 20:07:57 GMT 41.191910 -5.815674 36,025 56 405 0
2018-05-19 20:07:50 GMT 41.183762 -5.831848 36,025 56 405 0
2018-05-19 20:07:47 GMT 41.181061 -5.837219 36,025 56 405 0
2018-05-19 20:07:42 GMT 41.175453 -5.848222 36,025 56 405 0
2018-05-19 20:07:37 GMT 41.169937 -5.859192 36,025 56 405 0
2018-05-19 20:07:31 GMT 41.163956 -5.871069 36,025 56 405 0
2018-05-19 20:07:27 GMT 41.159500 -5.879883 36,025 56 405 0
2018-05-19 20:07:21 GMT 41.150070 -5.898560 36,025 56 404 0
2018-05-19 20:07:15 GMT 41.148193 -5.902283 36,025 56 404 0
2018-05-19 20:07:11 GMT 41.143147 -5.912330 36,025 56 403 64
2018-05-19 20:07:08 GMT 41.141098 -5.916325 36,025 56 403 64
2018-05-19 20:07:05 GMT 41.137573 -5.923340 36,025 56 403 64
2018-05-19 20:07:01 GMT 41.133186 -5.931993 36,025 56 403 64
2018-05-19 20:06:55 GMT 41.126945 -5.944353 36,000 56 403 0
2018-05-19 20:06:49 GMT 41.116837 -5.964417 36,000 56 402 0
2018-05-19 20:06:44 GMT 41.114841 -5.968385 36,000 56 402 0
2018-05-19 20:06:40 GMT 41.110233 -5.977436 36,000 56 402 0
2018-05-19 20:06:34 GMT 41.105118 -5.987610 36,000 56 402 64
2018-05-19 20:06:30 GMT 41.100723 -5.996277 36,000 56 401 64
2018-05-19 20:06:27 GMT 41.098114 -6.001526 36,000 56 402 0
2018-05-19 20:06:24 GMT 41.093079 -6.011353 36,000 56 402 0
2018-05-19 20:06:20 GMT 41.091248 -6.015076 36,000 56 402 0
2018-05-19 20:06:17 GMT 41.087494 -6.022400 36,000 56 400 0
2018-05-19 20:06:13 GMT 41.083561 -6.030183 36,000 56 400 0
2018-05-19 20:06:03 GMT 41.067921 -6.061020 36,000 56 399 0
2018-05-19 20:05:56 GMT 41.064423 -6.067932 36,000 56 399 0
2018-05-19 20:05:47 GMT 41.056915 -6.082642 36,000 56 398 0
2018-05-19 20:05:44 GMT 41.051697 -6.093018 36,000 56 398 0
2018-05-19 20:05:39 GMT 41.047531 -6.101196 36,000 56 398 0
2018-05-19 20:05:34 GMT 41.041443 -6.113220 36,000 56 397 0
2018-05-19 20:05:31 GMT 41.039474 -6.117075 36,000 56 397 0
2018-05-19 20:05:26 GMT 41.035099 -6.125689 36,000 56 397 0
2018-05-19 20:05:20 GMT 41.026154 -6.143311 36,000 56 396 0
2018-05-19 20:05:16 GMT 41.023773 -6.148010 35,975 56 395 0
2018-05-19 20:05:13 GMT 41.022217 -6.151062 35,975 56 395 0
2018-05-19 20:05:07 GMT 41.014343 -6.166443 35,975 56 395 0
2018-05-19 20:05:04 GMT 41.012848 -6.169385 35,975 56 395 0
2018-05-19 20:04:59 GMT 41.005005 -6.184753 36,000 55 394 0
2018-05-19 20:04:55 GMT 41.001801 -6.190979 36,000 55 394 0
2018-05-19 20:04:46 GMT 40.993248 -6.207712 36,000 55 393 0
2018-05-19 20:04:43 GMT 40.991295 -6.211520 36,000 55 393 0
2018-05-19 20:04:33 GMT 40.981518 -6.230621 36,000 55 393 0
2018-05-19 20:04:23 GMT 40.971085 -6.251038 35,975 55 393 0
2018-05-19 20:04:13 GMT 40.960236 -6.272278 36,000 55 393 0
2018-05-19 20:04:02 GMT 40.949444 -6.293418 36,000 55 393 -64
2018-05-19 20:03:52 GMT 40.938782 -6.314267 36,000 56 392 -64
2018-05-19 20:03:40 GMT 40.927982 -6.335428 36,000 56 391 0
2018-05-19 20:03:30 GMT 40.917370 -6.356153 36,000 56 391 0
2018-05-19 20:03:19 GMT 40.906338 -6.377688 36,000 56 391 -64
2018-05-19 20:03:15 GMT 40.902008 -6.386178 36,000 56 392 0
2018-05-19 20:03:10 GMT 40.896233 -6.397539 36,000 56 392 0
2018-05-19 20:03:07 GMT 40.892323 -6.405279 36,000 56 392 0
2018-05-19 20:03:03 GMT 40.890602 -6.408587 36,000 56 393 0
2018-05-19 20:02:58 GMT 40.885254 -6.419189 36,000 56 393 0
2018-05-19 20:02:54 GMT 40.880081 -6.429374 36,000 56 393 0
2018-05-19 20:02:49 GMT 40.874634 -6.440002 36,000 54 392 -64
2018-05-19 20:02:43 GMT 40.869328 -6.449474 36,025 51 390 -64
2018-05-19 20:02:38 GMT 40.863556 -6.458862 36,025 49 390 -64
2018-05-19 20:02:33 GMT 40.858200 -6.466952 36,025 45 388 0
2018-05-19 20:02:30 GMT 40.853531 -6.473511 36,025 45 388 0
2018-05-19 20:02:27 GMT 40.850288 -6.477939 36,025 45 388 0
2018-05-19 20:02:16 GMT 40.836601 -6.496228 36,025 45 389 0
2018-05-19 20:02:13 GMT 40.830410 -6.504530 36,000 45 390 0
2018-05-19 20:02:09 GMT 40.827713 -6.508118 36,000 45 390 0
2018-05-19 20:02:06 GMT 40.823090 -6.514282 36,025 45 390 0
2018-05-19 20:02:02 GMT 40.816860 -6.522633 36,025 45 390 -64
2018-05-19 20:01:58 GMT 40.813614 -6.526978 36,025 45 390 0
2018-05-19 20:01:55 GMT 40.809586 -6.532410 36,025 45 390 -64
2018-05-19 20:01:52 GMT 40.806622 -6.536303 36,025 45 390 0
2018-05-19 20:01:48 GMT 40.800663 -6.544293 36,025 45 390 0
2018-05-19 20:01:45 GMT 40.796356 -6.550049 36,025 45 390 -64
2018-05-19 20:01:41 GMT 40.789581 -6.559082 36,025 45 390 0
2018-05-19 20:01:38 GMT 40.786835 -6.562708 36,025 45 390 0
2018-05-19 20:01:33 GMT 40.782532 -6.568481 36,025 45 390 0
2018-05-19 20:01:30 GMT 40.778225 -6.574256 36,025 45 390 0
2018-05-19 20:01:27 GMT 40.774174 -6.579625 36,025 45 390 0
2018-05-19 20:01:24 GMT 40.769302 -6.586121 36,025 45 390 0
2018-05-19 20:01:20 GMT 40.766075 -6.590486 36,025 45 390 0
2018-05-19 20:01:16 GMT 40.760422 -6.598083 36,025 45 390 64
2018-05-19 20:01:13 GMT 40.756622 -6.603158 36,025 45 390 64
2018-05-19 20:01:09 GMT 40.751503 -6.609962 36,025 45 390 64
2018-05-19 20:01:06 GMT 40.747967 -6.614706 36,000 45 390 64
2018-05-19 20:01:03 GMT 40.742844 -6.621510 36,000 45 390 64
2018-05-19 20:00:55 GMT 40.731628 -6.636536 36,000 45 390 64
2018-05-19 20:00:52 GMT 40.729889 -6.638855 36,000 45 390 0
2018-05-19 20:00:49 GMT 40.725266 -6.645020 36,000 45 390 0
2018-05-19 20:00:42 GMT 40.716591 -6.656591 35,975 45 390 0
2018-05-19 20:00:39 GMT 40.712311 -6.662292 35,975 45 390 0
2018-05-19 20:00:34 GMT 40.705833 -6.670948 35,975 45 390 0
2018-05-19 20:00:31 GMT 40.703110 -6.674561 35,975 45 390 0
2018-05-19 20:00:23 GMT 40.691574 -6.689941 35,975 45 390 64
2018-05-19 20:00:20 GMT 40.690193 -6.691860 35,975 45 390 0
2018-05-19 20:00:13 GMT 40.679901 -6.705566 35,975 45 388 0
2018-05-19 20:00:10 GMT 40.676651 -6.709839 35,975 45 388 0
2018-05-19 20:00:02 GMT 40.666718 -6.723083 35,975 45 389 0
2018-05-19 19:59:59 GMT 40.662216 -6.729126 35,975 45 389 0
2018-05-19 19:59:49 GMT 40.650513 -6.744629 35,975 45 388 0
2018-05-19 19:59:41 GMT 40.639965 -6.758589 35,975 45 388 0
2018-05-19 19:59:38 GMT 40.636986 -6.762522 35,975 45 388 0
2018-05-19 19:59:29 GMT 40.623505 -6.780396 35,975 45 388 0
2018-05-19 19:59:22 GMT 40.615665 -6.790799 36,000 45 388 -64
2018-05-19 19:59:19 GMT 40.609451 -6.799011 36,000 45 388 -64
2018-05-19 19:59:16 GMT 40.608124 -6.800787 36,000 45 388 -64
2018-05-19 19:59:10 GMT 40.600800 -6.810425 36,000 45 388 -64
2018-05-19 19:59:07 GMT 40.597824 -6.814392 36,000 45 388 -64
2018-05-19 19:59:00 GMT 40.587826 -6.827566 36,000 45 388 0
2018-05-19 19:58:57 GMT 40.584286 -6.832248 36,000 45 389 0
2018-05-19 19:58:54 GMT 40.578377 -6.840113 36,000 45 389 0
2018-05-19 19:58:50 GMT 40.574326 -6.845481 36,025 45 389 0
2018-05-19 19:58:47 GMT 40.569534 -6.851807 36,025 45 389 0
2018-05-19 19:58:43 GMT 40.564548 -6.858403 36,025 45 389 0
2018-05-19 19:58:40 GMT 40.563171 -6.860168 36,025 45 389 0
2018-05-19 19:58:37 GMT 40.559143 -6.865601 36,025 45 389 0
2018-05-19 19:58:34 GMT 40.554245 -6.872009 36,025 45 389 0
2018-05-19 19:58:30 GMT 40.550446 -6.877067 36,000 45 389 0
2018-05-19 19:58:26 GMT 40.544811 -6.884558 36,025 45 390 0
2018-05-19 19:58:22 GMT 40.538818 -6.892456 36,025 45 391 0
2018-05-19 19:58:18 GMT 40.533966 -6.898926 36,000 45 391 0
2018-05-19 19:58:14 GMT 40.528931 -6.905640 36,000 45 391 0
2018-05-19 19:58:10 GMT 40.523163 -6.913269 36,000 45 391 0
2018-05-19 19:58:06 GMT 40.519638 -6.917908 36,000 45 391 0
2018-05-19 19:58:03 GMT 40.516663 -6.921875 36,000 45 391 0
2018-05-19 19:57:59 GMT 40.509109 -6.931885 36,000 45 391 0
2018-05-19 19:57:56 GMT 40.507149 -6.934495 36,000 45 391 0
2018-05-19 19:57:53 GMT 40.504219 -6.938428 36,000 45 391 0
2018-05-19 19:57:49 GMT 40.495510 -6.949914 36,000 45 391 0
2018-05-19 19:57:46 GMT 40.493317 -6.952820 36,000 45 391 0
2018-05-19 19:57:43 GMT 40.490391 -6.956718 36,000 45 391 -64
2018-05-19 19:57:38 GMT 40.484386 -6.964645 36,025 45 391 -64
2018-05-19 19:57:34 GMT 40.479778 -6.970700 36,025 45 390 0
2018-05-19 19:57:31 GMT 40.475967 -6.975769 36,025 45 390 0
2018-05-19 19:57:28 GMT 40.471119 -6.982186 36,025 45 390 0
2018-05-19 19:57:25 GMT 40.467583 -6.986805 36,025 45 390 0
2018-05-19 19:57:22 GMT 40.464043 -6.991549 36,025 45 390 0
2018-05-19 19:57:18 GMT 40.457806 -6.999727 36,000 45 390 0
2018-05-19 19:57:15 GMT 40.453754 -7.005095 36,000 45 390 64
2018-05-19 19:57:12 GMT 40.450729 -7.009028 36,000 45 390 64
2018-05-19 19:57:07 GMT 40.444794 -7.016907 36,000 45 390 64
2018-05-19 19:57:04 GMT 40.440720 -7.022278 36,000 45 391 64
2018-05-19 19:57:01 GMT 40.436905 -7.027317 36,000 45 391 0
2018-05-19 19:56:57 GMT 40.431198 -7.034851 36,000 45 391 0
2018-05-19 19:56:54 GMT 40.428177 -7.038818 36,000 45 391 0
2018-05-19 19:56:51 GMT 40.424103 -7.044189 36,000 45 391 0
2018-05-19 19:56:46 GMT 40.416187 -7.054596 36,000 45 391 0
2018-05-19 19:56:43 GMT 40.414261 -7.057068 36,000 45 391 0
2018-05-19 19:56:39 GMT 40.409134 -7.063843 36,000 45 391 0
2018-05-19 19:56:36 GMT 40.404465 -7.069946 36,000 45 391 0
2018-05-19 19:56:33 GMT 40.401489 -7.073792 36,000 45 391 0
2018-05-19 19:56:29 GMT 40.396587 -7.080252 36,000 45 391 0
2018-05-19 19:56:25 GMT 40.391373 -7.087097 36,000 45 391 0
2018-05-19 19:56:22 GMT 40.386299 -7.093735 36,000 45 391 0
2018-05-19 19:56:19 GMT 40.382950 -7.098104 36,000 45 391 0
2018-05-19 19:56:16 GMT 40.377598 -7.105158 36,000 45 391 0
2018-05-19 19:56:12 GMT 40.375031 -7.108521 36,000 45 391 -64
2018-05-19 19:56:08 GMT 40.369858 -7.115234 36,000 45 391 -64
2018-05-19 19:56:04 GMT 40.364136 -7.122742 36,000 45 391 -64
2018-05-19 19:56:01 GMT 40.360882 -7.127068 36,000 45 391 -64
2018-05-19 19:55:58 GMT 40.356537 -7.132751 36,000 45 391 0
2018-05-19 19:55:54 GMT 40.350494 -7.140625 36,000 45 391 0
2018-05-19 19:55:51 GMT 40.348343 -7.143433 36,000 45 391 0
2018-05-19 19:55:48 GMT 40.342915 -7.150601 36,000 45 391 0
2018-05-19 19:55:44 GMT 40.338547 -7.156250 36,000 45 391 0
2018-05-19 19:55:41 GMT 40.334976 -7.160950 36,000 45 391 0
2018-05-19 19:55:37 GMT 40.329529 -7.168030 36,000 45 391 0
2018-05-19 19:55:31 GMT 40.322159 -7.177734 36,000 45 392 0
2018-05-19 19:55:26 GMT 40.315613 -7.186279 36,000 45 392 0
2018-05-19 19:55:23 GMT 40.312592 -7.190247 36,000 45 392 0
2018-05-19 19:55:20 GMT 40.307922 -7.196350 36,000 45 392 0
2018-05-19 19:55:17 GMT 40.301651 -7.204590 36,000 45 393 0
2018-05-19 19:55:13 GMT 40.299435 -7.207468 36,000 45 393 0
2018-05-19 19:55:10 GMT 40.294781 -7.213586 36,000 45 393 64
2018-05-19 19:55:05 GMT 40.288773 -7.221451 36,000 45 393 64
2018-05-19 19:55:01 GMT 40.281933 -7.230377 36,000 45 393 0
2018-05-19 19:54:57 GMT 40.277229 -7.236495 36,000 45 393 0
2018-05-19 19:54:52 GMT 40.272293 -7.242924 36,000 45 392 64
2018-05-19 19:54:49 GMT 40.268784 -7.247559 36,000 45 392 64
2018-05-19 19:54:42 GMT 40.259171 -7.260132 36,000 45 391 0
2018-05-19 19:54:39 GMT 40.255348 -7.265146 36,000 45 391 0
2018-05-19 19:54:34 GMT 40.248001 -7.274719 36,000 45 389 0
2018-05-19 19:54:29 GMT 40.243107 -7.281127 36,000 45 387 0
2018-05-19 19:54:25 GMT 40.234772 -7.291992 36,000 44 385 256
2018-05-19 19:54:22 GMT 40.232864 -7.294485 36,000 45 386 128
2018-05-19 19:54:18 GMT 40.228546 -7.300110 36,000 45 384 256
2018-05-19 19:54:11 GMT 40.219666 -7.311646 35,950 44 383 704
2018-05-19 19:54:08 GMT 40.213898 -7.319153 35,900 44 383 1024
2018-05-19 19:54:00 GMT 40.206573 -7.328735 35,750 45 384 1536
2018-05-19 19:53:56 GMT 40.201164 -7.335746 35,650 44 385 1792
2018-05-19 19:53:50 GMT 40.193623 -7.345546 35,450 45 388 1984
2018-05-19 19:53:47 GMT 40.190083 -7.350166 35,375 44 389 1856
2018-05-19 19:53:40 GMT 40.180527 -7.362610 35,150 45 393 1600
2018-05-19 19:53:37 GMT 40.176956 -7.367249 35,075 45 394 1536
2018-05-19 19:53:30 GMT 40.166748 -7.380554 34,900 45 395 1152
2018-05-19 19:53:27 GMT 40.162399 -7.386230 34,850 45 395 1024
2018-05-19 19:53:19 GMT 40.152466 -7.399109 34,725 44 396 640
2018-05-19 19:53:16 GMT 40.150131 -7.402161 34,700 45 395 576
2018-05-19 19:53:08 GMT 40.139946 -7.415459 34,625 44 395 704
2018-05-19 19:53:05 GMT 40.134979 -7.421875 34,575 44 395 896
2018-05-19 19:52:59 GMT 40.126446 -7.433000 34,450 44 395 1280
2018-05-19 19:52:55 GMT 40.123375 -7.436933 34,400 45 395 1408
2018-05-19 19:52:48 GMT 40.111542 -7.452332 34,200 44 398 1664
2018-05-19 19:52:45 GMT 40.109779 -7.454598 34,125 44 398 1728
2018-05-19 19:52:39 GMT 40.099548 -7.467896 33,900 44 400 1728
2018-05-19 19:52:35 GMT 40.096069 -7.472412 33,825 44 402 1664
2018-05-19 19:52:28 GMT 40.086502 -7.484802 33,625 44 404 1472
2018-05-19 19:52:24 GMT 40.082500 -7.489929 33,550 44 405 1408
2018-05-19 19:52:17 GMT 40.072037 -7.503540 33,375 44 406 1152
2018-05-19 19:52:14 GMT 40.068924 -7.507568 33,325 44 406 1152
2018-05-19 19:52:07 GMT 40.059505 -7.519767 33,175 44 407 1088
2018-05-19 19:52:04 GMT 40.055008 -7.525635 33,125 44 407 1088
2018-05-19 19:51:57 GMT 40.044983 -7.538574 33,000 44 407 832
2018-05-19 19:51:53 GMT 40.040977 -7.543737 32,975 44 407 832
2018-05-19 19:51:46 GMT 40.031067 -7.556580 32,850 44 407 960
2018-05-19 19:51:42 GMT 40.026764 -7.562134 32,725 44 405 704
2018-05-19 19:51:39 GMT 40.020218 -7.570618 32,725 44 405 704
2018-05-19 19:51:36 GMT 40.016510 -7.575378 32,675 44 407 768
2018-05-19 19:51:33 GMT 40.013397 -7.579407 32,450 44 405 704
2018-05-19 19:51:25 GMT 40.002850 -7.592988 32,575 44 405 448
2018-05-19 19:51:22 GMT 39.998886 -7.598145 32,450 44 400 576
2018-05-19 19:51:16 GMT 39.989868 -7.609802 32,500 44 403 448
2018-05-19 19:51:13 GMT 39.986710 -7.613831 32,475 44 402 448
2018-05-19 19:51:10 GMT 39.981670 -7.620329 32,450 44 400 576
2018-05-19 19:51:05 GMT 39.975475 -7.628257 32,400 44 400 704
2018-05-19 19:51:02 GMT 39.970963 -7.634094 32,350 44 400 768
2018-05-19 19:50:54 GMT 39.962036 -7.645569 32,225 44 399 1216
2018-05-19 19:50:51 GMT 39.957825 -7.651001 32,200 44 399 1280
2018-05-19 19:50:44 GMT 39.948242 -7.663338 32,025 44 400 1408
2018-05-19 19:50:40 GMT 39.943775 -7.669081 31,950 44 400 1408
2018-05-19 19:50:33 GMT 39.934753 -7.680664 31,775 44 402 1472
2018-05-19 19:50:29 GMT 39.930275 -7.686435 31,700 44 402 1472
2018-05-19 19:50:23 GMT 39.920078 -7.699524 31,500 44 403 1536
2018-05-19 19:50:20 GMT 39.916962 -7.703552 31,450 44 404 1536
2018-05-19 19:50:12 GMT 39.906208 -7.717407 31,225 44 406 1344
2018-05-19 19:50:09 GMT 39.902485 -7.722229 31,175 44 406 1280
2018-05-19 19:50:01 GMT 39.891964 -7.735779 31,000 44 406 1152
2018-05-19 19:49:58 GMT 39.887695 -7.741182 30,975 44 406 1088
2018-05-19 19:49:51 GMT 39.878510 -7.752991 30,825 44 406 1024
2018-05-19 19:49:48 GMT 39.875107 -7.757422 30,800 44 406 1024
2018-05-19 19:49:40 GMT 39.864304 -7.771275 30,650 44 405 960
2018-05-19 19:49:37 GMT 39.860306 -7.776428 30,600 44 405 960
2018-05-19 19:49:30 GMT 39.850067 -7.789545 30,475 44 405 1216
2018-05-19 19:49:27 GMT 39.846901 -7.793579 30,425 44 405 1344
2018-05-19 19:49:19 GMT 39.834824 -7.809130 30,225 44 406 1472
2018-05-19 19:49:16 GMT 39.832748 -7.811829 30,175 44 406 1408
2018-05-19 19:49:09 GMT 39.822460 -7.825012 30,000 44 406 1280
2018-05-19 19:49:06 GMT 39.819294 -7.829041 29,950 44 406 1088
2018-05-19 19:48:59 GMT 39.809612 -7.841492 29,800 44 405 832
2018-05-19 19:48:56 GMT 39.803879 -7.848776 29,775 44 405 832
2018-05-19 19:48:48 GMT 39.792294 -7.863586 29,650 44 404 960
2018-05-19 19:48:45 GMT 39.790806 -7.865540 29,625 44 404 1024
2018-05-19 19:48:38 GMT 39.780609 -7.878479 29,500 44 403 1152
2018-05-19 19:48:35 GMT 39.777164 -7.882935 29,425 44 403 1088
2018-05-19 19:48:28 GMT 39.768040 -7.894531 29,300 44 403 960
2018-05-19 19:48:24 GMT 39.762081 -7.902161 29,250 44 403 896
2018-05-19 19:48:18 GMT 39.754169 -7.912231 29,150 44 403 896
2018-05-19 19:48:14 GMT 39.749329 -7.918396 29,100 44 402 960
2018-05-19 19:48:07 GMT 39.739738 -7.930664 28,975 44 401 1024
2018-05-19 19:48:03 GMT 39.734299 -7.937562 28,900 44 401 1088
2018-05-19 19:47:58 GMT 39.727844 -7.945802 28,800 44 400 960
2018-05-19 19:47:55 GMT 39.723305 -7.951599 28,775 44 400 960
2018-05-19 19:47:52 GMT 39.721115 -7.954400 28,750 44 400 960
2018-05-19 19:47:46 GMT 39.711853 -7.966248 28,625 44 398 1024
2018-05-19 19:47:42 GMT 39.706787 -7.972671 28,550 44 398 1024
2018-05-19 19:47:37 GMT 39.701202 -7.979836 28,450 44 397 1344
2018-05-19 19:47:34 GMT 39.695606 -7.987000 28,375 44 397 1472
2018-05-19 19:47:31 GMT 39.693371 -7.989807 28,350 44 397 1472
2018-05-19 19:47:27 GMT 39.686234 -7.998942 28,250 44 397 1536
2018-05-19 19:47:22 GMT 39.680523 -8.006226 28,100 44 397 1600
2018-05-19 19:47:18 GMT 39.674519 -8.013916 28,025 44 397 1472
2018-05-19 19:47:14 GMT 39.670807 -8.018646 27,925 44 396 1152
2018-05-19 19:47:11 GMT 39.665581 -8.025330 27,850 44 396 1216
2018-05-19 19:47:06 GMT 39.659061 -8.033569 27,750 44 395 1216
2018-05-19 19:47:03 GMT 39.655708 -8.037842 27,700 44 395 1216
2018-05-19 19:47:00 GMT 39.652081 -8.042480 27,650 44 395 1344
2018-05-19 19:46:57 GMT 39.648193 -8.047366 27,275 44 395 1280
2018-05-19 19:46:53 GMT 39.643112 -8.053814 27,475 44 395 1472
2018-05-19 19:46:50 GMT 39.638996 -8.059021 27,400 44 395 1344
2018-05-19 19:46:46 GMT 39.632668 -8.067078 27,300 44 394 1280
2018-05-19 19:46:43 GMT 39.628662 -8.072144 27,225 44 394 1344
2018-05-19 19:46:40 GMT 39.625900 -8.075668 27,175 44 394 1344
2018-05-19 19:46:35 GMT 39.619213 -8.084106 27,025 44 393 1536
2018-05-19 19:46:32 GMT 39.615070 -8.089355 27,000 44 393 1472
2018-05-19 19:46:29 GMT 39.611996 -8.093262 26,925 44 393 1536
2018-05-19 19:46:24 GMT 39.604828 -8.102356 26,800 44 393 1536
2018-05-19 19:46:21 GMT 39.601479 -8.106628 26,725 44 393 1600
2018-05-19 19:46:18 GMT 39.598160 -8.110836 26,650 44 393 1600
2018-05-19 19:46:14 GMT 39.591522 -8.119255 26,525 44 393 1600
2018-05-19 19:46:11 GMT 39.587605 -8.124207 26,450 44 393 1536
2018-05-19 19:46:08 GMT 39.582157 -8.131165 26,375 44 393 1408
2018-05-19 19:46:04 GMT 39.579025 -8.135137 26,050 44 392 1344
2018-05-19 19:46:00 GMT 39.573715 -8.141824 26,200 44 392 1344
2018-05-19 19:45:57 GMT 39.570427 -8.146057 26,150 44 392 1344
2018-05-19 19:45:53 GMT 39.565430 -8.152393 26,050 44 390 1408
2018-05-19 19:45:48 GMT 39.557484 -8.162476 25,925 44 391 1408
2018-05-19 19:45:44 GMT 39.553024 -8.168096 25,850 44 391 1408
2018-05-19 19:45:36 GMT 39.543427 -8.180298 25,625 44 390 1600
2018-05-19 19:45:33 GMT 39.539284 -8.185486 25,575 44 390 1664
2018-05-19 19:45:28 GMT 39.531876 -8.194905 25,375 44 390 1984
2018-05-19 19:45:25 GMT 39.529648 -8.197693 25,350 44 390 1984
2018-05-19 19:45:22 GMT 39.524689 -8.203981 25,250 44 390 1920
2018-05-19 19:45:16 GMT 39.517265 -8.213379 25,025 44 391 1728
2018-05-19 19:45:13 GMT 39.512878 -8.218908 24,575 44 388 1472
2018-05-19 19:45:05 GMT 39.503448 -8.230850 24,750 44 390 1536
2018-05-19 19:45:02 GMT 39.499878 -8.235328 24,700 44 390 1536
2018-05-19 19:44:58 GMT 39.494110 -8.242612 24,575 44 388 1472
2018-05-19 19:44:55 GMT 39.490540 -8.247150 24,525 44 389 1536
2018-05-19 19:44:52 GMT 39.486118 -8.252747 24,400 44 388 1472
2018-05-19 19:44:46 GMT 39.477367 -8.263794 24,250 44 388 1600
2018-05-19 19:44:42 GMT 39.473270 -8.268982 24,175 44 388 1664
2018-05-19 19:44:34 GMT 39.462845 -8.282139 23,900 44 387 1536
2018-05-19 19:44:31 GMT 39.458542 -8.287572 23,875 44 387 1536
2018-05-19 19:44:24 GMT 39.449982 -8.298320 23,650 44 386 1664
2018-05-19 19:44:21 GMT 39.446690 -8.302490 23,625 44 386 1664
2018-05-19 19:44:14 GMT 39.436913 -8.314819 23,400 44 384 1856
2018-05-19 19:44:11 GMT 39.433376 -8.319275 23,325 44 384 1920
2018-05-19 19:44:04 GMT 39.423367 -8.331909 23,075 44 385 1856
2018-05-19 19:44:01 GMT 39.420063 -8.335999 23,000 44 385 1920
2018-05-19 19:43:52 GMT 39.408646 -8.350326 22,750 44 383 1344
2018-05-19 19:43:49 GMT 39.406467 -8.353088 22,700 44 383 1344
2018-05-19 19:43:43 GMT 39.396740 -8.365356 22,550 44 381 1152
2018-05-19 19:43:40 GMT 39.393761 -8.369080 22,500 44 380 1216
2018-05-19 19:43:33 GMT 39.384079 -8.381226 22,350 44 377 1280
2018-05-19 19:43:30 GMT 39.380402 -8.385852 22,300 44 376 1536
2018-05-19 19:43:22 GMT 39.370857 -8.397888 22,050 44 374 2048
2018-05-19 19:43:19 GMT 39.366394 -8.403526 22,000 44 374 2112
2018-05-19 19:43:11 GMT 39.356873 -8.415468 21,675 44 375 2176
2018-05-19 19:43:08 GMT 39.354378 -8.418579 21,600 44 375 2112
2018-05-19 19:43:00 GMT 39.344463 -8.431030 21,200 44 375 2176
2018-05-19 19:42:57 GMT 39.341080 -8.435291 21,225 44 375 2112
2018-05-19 19:42:50 GMT 39.331787 -8.446994 20,925 44 375 1920
2018-05-19 19:42:47 GMT 39.328079 -8.451591 20,900 44 375 1920
2018-05-19 19:42:42 GMT 39.320953 -8.460571 20,700 44 374 1856
2018-05-19 19:42:39 GMT 39.318020 -8.464233 20,600 44 374 1792
2018-05-19 19:42:36 GMT 39.314575 -8.468567 20,550 44 374 1792
2018-05-19 19:42:31 GMT 39.308258 -8.476490 20,400 44 372 1792
2018-05-19 19:42:28 GMT 39.305328 -8.480132 20,350 44 371 1792
2018-05-19 19:42:25 GMT 39.301392 -8.485088 20,250 44 371 1792
2018-05-19 19:42:21 GMT 39.295074 -8.492969 20,025 44 369 1792
2018-05-19 19:42:18 GMT 39.292465 -8.496253 20,025 44 369 1856
2018-05-19 19:42:15 GMT 39.288528 -8.501149 19,950 44 369 1856
2018-05-19 19:42:11 GMT 39.282547 -8.508667 19,800 44 368 1984
2018-05-19 19:42:08 GMT 39.280426 -8.511299 19,725 44 367 2048
2018-05-19 19:42:04 GMT 39.275799 -8.517090 19,600 44 367 2176
2018-05-19 19:41:58 GMT 39.267654 -8.527242 19,375 44 367 2240
2018-05-19 19:41:54 GMT 39.262756 -8.533392 19,225 44 367 2176
2018-05-19 19:41:48 GMT 39.253922 -8.544378 18,975 44 365 1984
2018-05-19 19:41:44 GMT 39.249527 -8.549931 18,875 44 364 1984
2018-05-19 19:41:37 GMT 39.241535 -8.559937 18,650 44 364 2176
2018-05-19 19:41:32 GMT 39.236927 -8.565735 18,500 44 363 2240
2018-05-19 19:41:28 GMT 39.231216 -8.572859 18,300 44 364 2432
2018-05-19 19:41:25 GMT 39.226868 -8.578292 18,175 44 364 2432
2018-05-19 19:41:22 GMT 39.224030 -8.581815 18,100 44 364 2432
2018-05-19 19:41:17 GMT 39.218399 -8.588928 17,850 44 363 2176
2018-05-19 19:41:14 GMT 39.214462 -8.593816 17,800 44 363 2176
2018-05-19 19:41:11 GMT 39.211136 -8.597961 17,700 44 363 2112
2018-05-19 19:41:07 GMT 39.205765 -8.604683 17,525 44 362 2048
2018-05-19 19:41:04 GMT 39.202198 -8.609131 17,450 44 362 1920
2018-05-19 19:41:01 GMT 39.198578 -8.613639 17,350 44 360 1920
2018-05-19 19:40:57 GMT 39.192673 -8.620984 17,200 44 359 1728
2018-05-19 19:40:54 GMT 39.189697 -8.624686 17,125 44 359 1664
2018-05-19 19:40:51 GMT 39.185814 -8.629517 17,050 44 357 1792
2018-05-19 19:40:46 GMT 39.180771 -8.635791 16,925 44 356 2112
2018-05-19 19:40:43 GMT 39.177200 -8.640259 16,825 44 355 2368
2018-05-19 19:40:40 GMT 39.173428 -8.644958 16,700 44 355 2560
2018-05-19 19:40:36 GMT 39.168137 -8.651554 16,525 44 355 2560
2018-05-19 19:40:33 GMT 39.164909 -8.655579 16,400 44 355 2368
2018-05-19 19:40:28 GMT 39.160080 -8.661585 16,250 44 355 2176
2018-05-19 19:40:25 GMT 39.156830 -8.665645 16,150 44 353 2048
2018-05-19 19:40:22 GMT 39.152527 -8.670959 16,025 44 353 2048
2018-05-19 19:40:19 GMT 39.148521 -8.675964 15,900 44 352 2048
2018-05-19 19:40:15 GMT 39.143417 -8.682364 15,800 44 350 2112
2018-05-19 19:40:12 GMT 39.140305 -8.686185 15,675 43 350 2112
2018-05-19 19:40:05 GMT 39.131882 -8.696574 15,425 43 347 2176
2018-05-19 19:40:02 GMT 39.129181 -8.699978 15,325 43 347 2368
2018-05-19 19:39:55 GMT 39.119801 -8.711609 15,000 43 345 2752
2018-05-19 19:39:52 GMT 39.116356 -8.715820 14,875 43 345 2944
2018-05-19 19:39:44 GMT 39.108723 -8.725281 14,550 43 347 3072
2018-05-19 19:39:41 GMT 39.104782 -8.730130 14,375 43 347 3072
2018-05-19 19:39:34 GMT 39.095592 -8.741455 14,025 43 349 3072
2018-05-19 19:39:31 GMT 39.092606 -8.745117 13,850 43 349 2944
2018-05-19 19:39:24 GMT 39.083679 -8.756163 13,475 43 349 2304
2018-05-19 19:39:20 GMT 39.080383 -8.760223 13,425 43 348 2048
2018-05-19 19:39:13 GMT 39.072006 -8.770553 13,200 43 344 1920
2018-05-19 19:39:10 GMT 39.068127 -8.775391 13,100 44 343 2048
2018-05-19 19:39:02 GMT 39.059830 -8.785659 12,750 44 341 2496
2018-05-19 19:38:59 GMT 39.056492 -8.789856 12,700 44 340 2496
2018-05-19 19:38:53 GMT 39.047832 -8.800720 12,375 44 338 2496
2018-05-19 19:38:48 GMT 39.044712 -8.804626 12,275 44 337 2624
2018-05-19 19:38:42 GMT 39.037399 -8.813901 11,975 44 336 2816
2018-05-19 19:38:38 GMT 39.033119 -8.819336 11,800 44 335 2752
2018-05-19 19:38:31 GMT 39.025578 -8.828918 11,500 44 334 2176
2018-05-19 19:38:28 GMT 39.021881 -8.833724 11,375 44 333 2048
2018-05-19 19:38:22 GMT 39.015106 -8.842346 11,175 44 330 1600
2018-05-19 19:38:17 GMT 39.009563 -8.849365 11,050 44 325 1216
2018-05-19 19:38:11 GMT 39.004166 -8.856323 10,950 44 318 1024
2018-05-19 19:38:07 GMT 38.999268 -8.862563 10,875 44 314 960
2018-05-19 19:38:01 GMT 38.993591 -8.869788 10,800 44 306 896
2018-05-19 19:37:57 GMT 38.989105 -8.875520 10,725 44 301 1024
2018-05-19 19:37:50 GMT 38.983078 -8.883240 10,625 44 293 1344
2018-05-19 19:37:46 GMT 38.978714 -8.888775 10,525 44 289 1856
2018-05-19 19:37:39 GMT 38.972672 -8.896478 10,300 44 284 2816
2018-05-19 19:37:35 GMT 38.969112 -8.901001 10,125 44 284 3136
2018-05-19 19:37:31 GMT 38.963524 -8.908081 9,800 44 284 3456
2018-05-19 19:37:28 GMT 38.962555 -8.909375 9,750 44 285 3392
2018-05-19 19:37:25 GMT 38.959290 -8.913452 9,550 44 285 3328
2018-05-19 19:37:20 GMT 38.954494 -8.919556 9,200 44 286 3200
2018-05-19 19:37:17 GMT 38.951702 -8.923096 9,125 44 286 3136
2018-05-19 19:37:14 GMT 38.949280 -8.926153 9,000 44 286 3072
2018-05-19 19:37:08 GMT 38.942623 -8.934509 8,650 44 284 2880
2018-05-19 19:37:04 GMT 38.939209 -8.938811 8,475 44 284 2816
2018-05-19 19:36:57 GMT 38.932800 -8.946931 8,175 44 281 2944
2018-05-19 19:36:53 GMT 38.928844 -8.951843 7,975 44 280 2944
2018-05-19 19:36:49 GMT 38.924286 -8.957619 7,725 44 279 2944
2018-05-19 19:36:46 GMT 38.922512 -8.959839 7,650 44 279 2880
2018-05-19 19:36:42 GMT 38.918789 -8.964539 7,450 44 277 2752
2018-05-19 19:36:38 GMT 38.914368 -8.970093 7,300 44 276 2688
2018-05-19 19:36:33 GMT 38.910233 -8.975352 7,050 44 273 2880
2018-05-19 19:36:27 GMT 38.905430 -8.981384 6,775 44 272 3008
2018-05-19 19:36:22 GMT 38.899933 -8.988342 6,525 44 271 3200
2018-05-19 19:36:18 GMT 38.896591 -8.992548 6,300 44 270 3392
2018-05-19 19:36:15 GMT 38.893185 -8.996887 6,075 45 270 3392
2018-05-19 19:36:12 GMT 38.891693 -8.998818 5,975 45 270 3392
2018-05-19 19:36:07 GMT 38.887318 -9.004761 5,700 49 270 3264
2018-05-19 19:36:01 GMT 38.882675 -9.011834 5,400 51 270 3264
2018-05-19 19:35:56 GMT 38.879219 -9.017517 5,150 52 270 3328
2018-05-19 19:35:50 GMT 38.873703 -9.026522 4,825 52 268 3328
2018-05-19 19:35:46 GMT 38.870888 -9.031189 4,575 52 268 3328
2018-05-19 19:35:40 GMT 38.866516 -9.038404 4,100 52 266 3264
2018-05-19 19:35:35 GMT 38.862926 -9.044250 4,025 52 265 3200
2018-05-19 19:35:28 GMT 38.856125 -9.055541 3,625 52 262 2880
2018-05-19 19:35:24 GMT 38.855011 -9.057495 3,500 52 261 2880
2018-05-19 19:35:18 GMT 38.849716 -9.066288 3,225 52 258 2560
2018-05-19 19:35:15 GMT 38.847980 -9.069214 3,075 52 256 2176
2018-05-19 19:35:07 GMT 38.842026 -9.079066 2,825 52 244 1728
2018-05-19 19:35:04 GMT 38.840698 -9.081275 2,775 52 242 1664
2018-05-19 19:34:57 GMT 38.835320 -9.090027 2,550 51 229 1152
2018-05-19 19:34:54 GMT 38.833603 -9.092799 2,475 50 223 768
2018-05-19 19:34:50 GMT 38.830711 -9.097412 2,475 50 223 768
2018-05-19 19:34:47 GMT 38.827873 -9.101807 2,425 50 205 896
2018-05-19 19:34:37 GMT 38.822845 -9.109375 2,250 46 191 1152
2018-05-19 19:34:34 GMT 38.820610 -9.112366 2,225 39 187 1472
2018-05-19 19:34:26 GMT 38.815208 -9.117065 2,050 23 177 1280
2018-05-19 19:34:22 GMT 38.812637 -9.118533 2,000 23 173 1152
2018-05-19 19:34:16 GMT 38.807419 -9.121459 1,850 23 163 1408
2018-05-19 19:34:09 GMT 38.803432 -9.123718 1,775 23 154 1536
2018-05-19 19:34:05 GMT 38.800545 -9.125305 1,600 23 153 1600
2018-05-19 19:34:01 GMT 38.797211 -9.127131 1,475 23 149 2752
2018-05-19 19:33:55 GMT 38.793842 -9.129028 1,200 23 150 3008
2018-05-19 19:33:52 GMT 38.791260 -9.130415 1,075 23 150 3136
2018-05-19 19:33:29 GMT 38.776875 -9.138311 0 23 158 2560
2018-05-19 19:33:13 GMT 38.769196 -9.142416 0 22 78
2018-05-19 19:32:45 GMT 38.765934 -9.144178 0 326 5
2018-05-19 19:32:36 GMT 38.765793 -9.144073 0 295 7
2018-05-19 19:30:16 GMT 38.765293 -9.142730 0 292 5
2018-05-19 19:30:10 GMT 38.765247 -9.142609 0 292 6
2018-05-19 19:30:05 GMT 38.765202 -9.142441 0 292 7
2018-05-19 19:29:59 GMT 38.765121 -9.142237 0 292 7
2018-05-19 19:27:04 GMT 38.765007 -9.141864 0 284 2
2018-05-19 19:26:57 GMT 38.764980 -9.141785 0 278 5
2018-05-19 19:26:47 GMT 38.764957 -9.141388 0 261 11
2018-05-19 19:26:41 GMT 38.765060 -9.140961 0 236 10
2018-05-19 19:26:34 GMT 38.765213 -9.140686 0 230 9
2018-05-19 19:26:31 GMT 38.765282 -9.140579 0 230 9
2018-05-19 19:26:27 GMT 38.765396 -9.140396 0 227 8
2018-05-19 19:26:15 GMT 38.765656 -9.140060 0 247 7
2018-05-19 19:26:03 GMT 38.765770 -9.139664 0 295 6
2018-05-19 19:25:53 GMT 38.765648 -9.139401 0 337 6
2018-05-19 19:24:49 GMT 38.765247 -9.139221 0 317 8
2018-05-19 19:24:45 GMT 38.765179 -9.139114 0 278 7
2018-05-19 19:24:41 GMT 38.765156 -9.138962 0 261 7
2018-05-19 19:24:36 GMT 38.765179 -9.138729 0 258 8
2018-05-19 19:24:31 GMT 38.765213 -9.138490 0 258 8
2018-05-19 19:24:24 GMT 38.765259 -9.138252 0 258 6
2018-05-19 19:24:21 GMT 38.765270 -9.138162 0 258 5
2018-05-19 19:23:42 GMT 38.765316 -9.137968 0 258 0
2018-05-19 19:22:46 GMT 38.765305 -9.137970 0 258 0
2018-05-19 19:22:37 GMT 38.765305 -9.137968 0 258 0
2018-05-19 19:22:26 GMT 38.765316 -9.137970 0 258 0
2018-05-19 19:22:11 GMT 38.765316 -9.137968 0 258 0
2018-05-19 19:22:07 GMT 38.765316 -9.137970 0 258 0
2018-05-19 19:21:56 GMT 38.765316 -9.137968 0 258 0
2018-05-19 19:21:53 GMT 38.765316 -9.137970 0 258 0

Making use of Plane Finder data

You are free to use the raw flight data, aircraft information and images provided in this report for your own purposes provided the data is correctly attributed to Plane Finder. We ask that you please credit Plane Finder and link to planefinder.net in close proximity to the content.

Optionally one of the following logos (no smaller then 150x24px) can be used and must link to planefinder.net

Embedding the Plane Finder map

You are welcome to embed the Plane Finder playback map on your website to offer visitors a more interactive experience. We suggest using the following HTML code:

<iframe src="//planefinder.net/data/report/U22716-G-EZWE-7700-squawk-2018-05-19/map" width="800" height="600" seamless="seamless"></iframe>

Where our data comes from

Plane Finder has a global network of data feeds and antenna radars that receive data broadcast directly from aircraft. The primary technologies used are ADS-B and MLAT. We also show feeds from the FAA and a FLARM glider feed.

Click here to find out more about the Plane Finder network.

How we collect our data